Water and Atmospheric Resources Monitoring Program - , Illinois State Water Survey

Water and Atmospheric Resources Monitoring Program (WARM)

Weather Soil Groundwater Sediment Streamflow Reservoirs

#229 Spoon (USGS #5569500)


Instantaneous Suspended Sediment Measurements

Date Time    Gage Ht. Temp Cs Qw Qs Final F
i
n
a
l
     (feet) (C) (mg/l) (cfs) (t/d)  
10/13/1980 10:45    4.33 10 123.00 178.2 59.2 True x
10/28/1980 09:10    4.66 111.00 249.1 74.6 True x
11/11/1980 09:45    4.49 60.00 213.3 34.6 True x
11/25/1980 09:55    4.45 31.00 204.9 17.1 True x
12/11/1980 10:30    8.36 335.00 1482 1,341.0 True x
2/4/1981 15:50    4.62  94.00 240.4 61.0 True x
3/12/1981 09:35    5.18 107.00 375.8 108.6 True x
4/1/1981 09:30    6.70 10 117.00 836.1 264.1 True x
4/3/1981 08:00    6.53 15 116.00 779.8 244.2 True x
4/4/1981 08:00    7.57 14 130.00 1153 404.8 True x
4/5/1981 07:30    7.63 131.00 1177 308.3 False x
4/6/1981 08:00    7.56 97.00 1149 406.5 False x
4/7/1981 08:00    6.44 13 126.00 217.5 74.0 False x
4/8/1981 08:00    4.27 13 106.00 165 47.2 True x
4/9/1981 08:00    4.45 11 168.00 204.9 92.9 True x
4/10/1981 07:00    5.53 13 182.00 471.9 231.9 True x
4/13/1981 07:30    16.40 13 3,531.00 5418 51,550.0 True x
4/14/1981 07:30    17.38 15 5,515.00 6129 90,970.0 True x
4/14/1981 18:30    18.88 12 3,894.00 7476 78,420.0 True x
4/15/1981 07:30    16.35 12 3,809.00 5383 55,230.0 True x
4/15/1981 19:30    16.56 12 2,471.00 5532 36,860.0 True x
4/16/1981 17:30    14.35 12 1,293.00 4149 14,470.0 True x
4/17/1981 07:30    11.41 14 1,156.00 2718 8,485.0 True x
4/18/1981 07:30    10.11 14 598.00 2162 3,491.0 True x
4/19/1981 07:30    10.88 15 772.00 2488 51.0 True x
4/20/1981 07:30    10.87 10 672.00 2484 4,507.0 True x
4/21/1981 08:30    10.86 505.00 2479 3,381.0 True x
4/22/1981 08:00    10.86 12 425.00 2479 2,845.0 True x
4/23/1981 08:00    10.96 12 1,621.00 2523 11,030.0 True x
4/24/1981 07:30    11.68 10 1,131.00 2839 8,669.0 True x
4/26/1981 07:00    10.86 15 428.00 2479 2,865.0 True x
4/27/1981 07:30    10.85 15 581.00 2475 3,883.0 True x
4/28/1981 08:00    10.85 18 490.00 2475 3,274.0 True x
4/29/1981 08:00    15.92 15 1,113.00 5090 15,290.0 True x
4/30/1981 08:00    12.34 12 3,994.00 3139 33,780.0 True x
5/1/1981 08:00    9.54 12 1,194.00 1932 6,228.0 True x
5/2/1981 07:30    9.71 11 698.00 2000 3,769.0 True x
5/3/1981 09:00    8.40 15 396.00 1500 1,604.0 True x
5/4/1981 07:30    8.61 15 445.00 1577 1,894.0 True x
5/6/1981 08:00    7.08 10 347.00 968.7 907.6 True x
5/7/1981 08:00    6.72 12 426.00 842.9 969.5 True x
5/8/1981 08:00    6.44 10 314.00 749.5 635.5 True x
5/9/1981 08:00    6.32 12 218.00 709.2 417.4 True x
5/10/1981 09:00    7.53 1,086.00 1138 3,336.0 True x
5/11/1981 08:00    10.94 910.00 2514 6,177.0 True x
5/12/1981 08:30    9.84 11 494.00 2052 2,737.0 True x
5/13/1981 08:00    8.70 11 405.00 1610 1,761.0 True x
5/13/1981 11:30    8.60 11 381.00 1573 1,618.0 True x
5/13/1981 17:30    8.34 11 428.00 1474 1,703.0 True x
5/14/1981 08:30    10.52 2,166.00 2334 13,630.0 True x
5/14/1981 17:00    12.86 2,631.00 3383 24,000.0 True x
5/15/1981 08:00    16.20 2,675.00 5278 38,060.0 True x
5/15/1981 19:00    15.64 12 2,869.00 4916 38,020.0 True x
5/16/1981 08:00    14.39 11 1,180.00 4172 13,290.0 True x
5/16/1981 17:30    13.54 15 1,007.00 3717 10,110.0 True x
5/17/1981 08:00    11.21 14 682.00 2631 4,845.0 True x
5/17/1981 17:00    11.72 14 563.00 2857 4,343.0 True x
5/18/1981 08:00    10.40 12 786.00 2283 4,845.0 True x
5/18/1981 17:00    11.14 11 708.00 2601 4,971.0 True x
5/19/1981 08:00    11.00 10 530.00 2540 3,635.0 True x
5/19/1981 18:00    10.16 14 442.00 2183 2,605.0 True x
5/20/1981 08:00    10.79 11 377.00 2449 2,493.0 True x
5/20/1981 18:30    9.55 15 349.00 1936 1,824.0 True x
5/21/1981 08:15    9.65 13 329.00 1976 1,755.0 True x
5/21/1981 20:00    8.23 15 374.00 1425 1,439.0 True x
5/22/1981 08:00    8.13 15 305.00 1383 1,139.0 True x
5/22/1981 20:00    8.94 16 644.00 1700 2,956.0 True x
5/23/1981 07:30    8.78 16 314.00 1640 1,390.0 True x
5/24/1981 08:15    7.54 16 310.00 1142 955.5 True x
5/24/1981 18:00    7.45 19 291.00 1106 869.4 True x
5/25/1981 08:00    7.25 17 299.00 1031 832.3 True x
5/25/1981 18:00    7.11 20 306.00 979.5 809.3 True x
5/26/1981 08:00    6.96 18 286.00 925.9 715.0 True x
5/26/1981 20:00    6.91 18 549.00 908.2 1,346.0 True x
5/27/1981 08:30    8.40 18 3,153.00 1500 12,750.0 True x
5/27/1981 19:30    7.40 20 642.00 1087 1,884.0 True x
5/28/1981 08:00    7.15 20 391.00 993.9 1,049.0 True x
5/28/1981 19:00    7.10 22 462.00 975.9 1,217.0 True x
5/29/1981 08:00    7.84 20 453.00 1261 1,543.0 True x
5/29/1981 19:00    7.64 22 493.00 1181 1,572.0 True x
5/30/1981 07:30    8.12 19 4,213.00 1378 15,640.0 True x
5/30/1981 18:00    8.95 20 4,807.00 1704 22,050.0 True x
5/31/1981 08:00    8.88 19 3,271.00 1677 14,790.0 True x
6/1/1981 07:00    6.42 18 1,637.00 742.7 3,281.0 True x
6/1/1981 19:40    6.28 19 679.00 696 1,276.0 True x
6/2/1981 07:30    6.17 19 489.00 660.4 871.9 True x
6/2/1981 19:30    6.12 21 393.00 644.5 683.8 True x
6/3/1981 07:30    6.06 19 394.00 625.7 665.6 True x
6/3/1981 18:30    6.00 23 515.00 607.1 844.2 True x
6/4/1981 07:00    5.91 19 345.00 579.9 540.2 True x
6/4/1981 19:00    6.77 21 442.00 859.9 1,026.0 True x
6/5/1981 06:00    6.76 22 286.00 856.5 661.4 True x
6/5/1981 12:00    6.91 24 608.00 908.2 1,491.0 True x
6/6/1981 06:00    6.79 23 413.00 866.7 966.5 True x
6/6/1981 19:00    5.76 25 400.00 536 578.8 True x
6/7/1981 08:00    5.73 21 269.00 527.4 383.0 True x
6/7/1981 18:00    5.78 24 321.00 541.7 469.5 True x
6/8/1981 08:00    5.71 23 410.00 521.7 577.5 True x
6/8/1981 19:00    5.53 26 308.00 471.9 392.4 True x
6/9/1981 07:30    7.81 21 4,207.00 1249 14,150.0 True x
6/9/1981 20:00    7.41 22 4,746.00 1091 13,940.0 True x
6/10/1981 07:30    7.81 20 2,167.00 1249 7,302.0 True x
6/10/1981 19:00    6.34 23 2,058.00 715.9 3,974.0 True x
6/11/1981 08:00    6.00 20 1,822.00 607.1 2,983.0 True x
6/11/1981 20:30    6.74 21 920.00 849.7 2,111.0 True x
6/12/1981 08:30    6.60 19 3,217.00 802.7 6,959.0 True x
6/12/1981 21:00    6.95 21 2,183.00 922.3 5,431.0 True x
6/13/1981 18:00    15.60 24 9,344.00 4892 122,710.0 True x
6/14/1981 07:00    17.12 23 5,217.00 5937 83,370.0 True x
6/14/1981 17:30    16.34 24 4,406.00 5376 63,780.0 True x
6/15/1981 07:00    15.14 23 6,612.00 4612 82,000.0 True x
6/15/1981 19:30    15.30 24 2,151.00 4709 27,320.0 True x
6/16/1981 08:00    11.66 20 1,196.00 2830 9,139.0 True x
6/16/1981 18:00    10.25 22 1,331.00 2221 7,974.0 True x
6/17/1981 08:00    10.88 18 890.00 2488 5,979.0 True x
6/17/1981 19:00    10.78 22 1,236.00 2444 8,157.0 True x
6/18/1981 08:00    10.87 20 1,189.00 2484 7,974.0 True x
6/18/1981 12:30    9.88 19 977.00 2069 5,457.0 True x
6/19/1981 08:00    7.68 19 519.00 1197 1,677.0 True x
6/19/1981 19:00    8.86 21 1,671.00 1670 7,529.0 True x
6/20/1981 08:00    8.01 20 2,029.00 1331 7,286.0 True x
6/20/1981 20:30    7.42 20 935.00 1095 2,764.0 True x
6/21/1981 07:00    7.15 19 578.00 993.9 1,551.0 True x
6/21/1981 20:00    10.60 21 3,682.00 2368 23,490.0 True x
6/22/1981 07:00    11.73 19 3,812.00 2861 29,380.0 True x
6/22/1981 20:00    11.93 21 1,221.00 2952 9,730.0 True x
6/23/1981 07:30    10.45 18 618.00 2304 3,844.0 True x
6/23/1981 19:30    8.86 22 783.00 1670 3,530.0 True x
6/24/1981 07:00    7.98 20 1,151.00 1319 4,098.0 True x
6/24/1981 14:30    11.00 25 7,102.00 2540 48,490.0 True x
6/25/1981 07:30    19.57 20 5,890.00 8220 130,250.0 True x
6/25/1981 18:30    18.34 23 3,724.00 6931 69,540.0 True x
6/26/1981 07:15    15.50 19 1,753.00 4830 22,850.0 True x
6/26/1981 18:30    11.78 25 1,895.00 2883 14,740.0 True x
6/27/1981 07:30    10.88 20 1,234.00 2488 8,290.0 True x
6/27/1981 19:00    11.88 23 873.00 2929 6,903.0 True x
6/28/1981 07:00    10.87 20 607.00 2484 4,071.0 True x
6/28/1981 20:00    9.87 23 595.00 2065 3,317.0 True x
6/29/1981 07:30    10.86 23 479.00 2479 3,207.0 True x
6/29/1981 18:00    10.87 20 449.00 2484 3,011.0 True x
7/4/1981 07:00    13.58 21 8,369.00 3737 84,010.0 True x
7/4/1981 20:00    16.00 21 4,826.00 5140 66,780.0 True x
7/5/1981 07:20    15.95 21 1,258.00 5109 17,350.0 True x
7/5/1981 18:00    15.83 23 955.00 5034 12,980.0 True x
7/6/1981 07:30    12.26 21 2,095.00 3103 17,530.0 True x
7/6/1981 19:30    10.88 24 1,141.00 2488 7,665.0 True x
7/7/1981 07:30    10.87 22 661.00 2484 4,433.0 True x
7/14/1981 19:30    6.67 30 222.00 826.1 495.2 True x
7/15/1981 07:30    6.50 25 359.00 770 746.4 True x
7/15/1981 20:00    6.80 27 479.00 870.1 1,125.0 True x
7/16/1981 07:30    6.15 26 247.00 654 436.2 True x
7/16/1981 20:00    5.54 30 286.00 474.6 366.5 True x
7/17/1981 07:30    5.44 23 175.00 447.7 211.6 True x
7/17/1981 19:00    5.37 28 203.00 428.6 234.9 True x
7/18/1981 07:30    5.31 24 210.00 411.5 233.3 True x
7/18/1981 17:00    5.27 26 137.00 400.4 148.1 True x
7/19/1981 08:00    15.47 26 7,517.00 4812 97,200.0 True x
7/19/1981 18:30    17.50 24 3,531.00 6219 59,170.0 True x
7/20/1981 07:00    16.66 23 1,280.00 5603 19,350.0 True x
7/20/1981 19:00    15.13 25 305.00 4606 3,793.0 True x
7/21/1981 07:30    7.88 23 222.00 1278 765.9 True x
7/21/1981 18:30    7.39 26 1,687.00 1083 4,931.0 True x
7/22/1981 07:30    7.23 22 776.00 1023 2,144.0 True x
7/22/1981 19:00    6.00 24 536.00 607.1 878.6 True x
7/23/1981 07:30    5.79 20 414.00 544.5 608.7 True x
7/23/1981 19:15    5.76 24 382.00 536 552.8 True x
7/24/1981 07:30    5.56 21 304.00 480 394.0 True x
7/24/1981 17:30    5.50 25 189.00 463.7 236.6 True x
7/25/1981 07:30    5.40 22 266.00 437.1 313.9 True x
7/25/1981 19:30    5.35 25 92.00 422.9 105.0 True x
7/26/1981 07:15    6.17 23 731.00 660.4 1,303.0 True x
7/26/1981 19:30    9.37 22 1,376.00 1865 6,925.0 True x
7/27/1981 07:00    11.12 20 3,954.00 2592 27,610.0 True x
7/27/1981 17:00    11.70 21 3,680.00 2848 28,240.0 True x
7/28/1981 07:30    10.86 18 2,359.00 2479 15,770.0 True x
7/28/1981 20:10    10.80 19 1,584.00 2453 10,480.0 True x
7/29/1981 08:10    10.49 16 2,833.00 2321 17,730.0 True x
7/29/1981 11:00    10.56 19 2,291.00 2351 14,520.0 True x
8/11/1981 14:05    7.76 21 506.00 1229 1,679.0 True x
8/20/1981 09:30    7.85 19 437.00 1265 1,493.0 True x
8/26/1981 11:50    6.03 23 239.00 616.4 397.8 True x
9/2/1981 10:25    5.86 20 259.00 565.1 395.2 True x
9/24/1981 15:00    4.42 17 95.00 198.5 50.9 True x
10/13/1981 10:35    4.57 13 211.00 229.8 130.9 True x
10/20/1981 12:45    5.94 11 255.00 589 399.2 True x
10/27/1981 09:35    5.12 141.00 360.1 137.1 True x
11/10/1981 08:30    4.99 168.00 327.1 148.4 True x
12/8/1981 10:30    5.08 124.00 349.7 117.1 True x
3/3/1982 11:45    6.85 211.00 887.4 505.6 True x
3/19/1982 10:40    12.63 1,901.00 3274 16,820.0 True x
4/2/1982 08:50    7.53 335.00 1137 1,028.0 True x
4/9/1982 10:40    8.73 242.00 1621 1,059.0 True x
4/15/1982 11:00    10.58 402.00 2183 2,287.0 True x
4/22/1982 11:00    10.57 395.00 2354 2,512.0 True x
4/29/1982 10:00    7.69 10 190.00 1200 615.7 True x
5/13/1982 11:15    5.91 19 174.00 579.9 272.5 True x
5/19/1982 12:00    6.13 20 1,057.00 647.6 1,850.0 True x
5/28/1982 09:55    10.15 17 5,116.00 2179 30,190.0 True x
6/2/1982 10:00    8.21 16 193.00 1408 3,777.0 True x
6/11/1982 11:14    6.18 19 314.00 663.5 562.7 True x
6/17/1982 10:43    5.97 19 319.00 598 515.2 True x
6/24/1982 10:35    5.24 20 233.00 392.2 246.7 True x
7/1/1982 11:00    5.10 20 271.00 354.8 259.7 True x
7/9/1982 11:30    20.89 23 890.00 9764 23,480.0 True x
7/15/1982 11:30    8.32 23 402.00 1460 1,549.0 True x
7/23/1982 11:52    12.19 21 1,751.00 3069 14,530.0 True x
7/29/1982 10:47    7.06 23 284.00 961.5 737.4 True x
8/17/1982 10:33    5.09 22 99.00 352.3 94.2 True x
8/26/1982 11:15    5.04 19 215.00 339.6 210.0 True x
9/2/1982 10:09    5.20 20 213.00 381.2 219.3 True x
9/7/1982 11:17    4.63 18 137.00 242.5 89.7 True x
9/16/1982 10:23    4.34 16 98.00 180.5 47.8 True x
9/23/1982 10:33    4.31 11 109.00 173.6 51.1 True x
10/7/1982 10:55    4.33 14 150.00 178.2 72.2 True x
10/12/1982 08:50    4.49 151.00 213.3 87.0 True x
10/22/1982 10:00    4.61 92.00 238.2 59.2 True x
10/29/1982 10:00    4.37 141.00 187.4 71.3 True x
11/3/1982 10:35    6.55 14 422.00 786.4 896.2 True x
11/18/1982 09:45    5.83 15 142.00 556.3 213.3 True x
11/23/1982 10:40    5.51 18 160.00 466.4 201.5 True x
12/3/1982 10:30    21.82 16 1,513.00 11270 46,070.0 True x
12/9/1982 10:30    11.42 19 307.00 2723 2,257.0 True x
12/28/1982 11:00    13.12 15 897.00 3509 8,503.0 True x
1/6/1983 10:45    7.80 14 129.00 1245 433.7 True x
2/16/1983 10:50    9.83 1,077.00 2048 5,960.0 True x
2/21/1983 11:00    7.59 209.00 1161 655.3 True x
3/1/1983 11:15    6.43 107.00 746.1 215.6 True x
3/31/1983 10:25    10.18 1,439.00 2192 8,517.0 True x
4/22/1983 10:04    8.68 11 199.00 1603 861.2 True x
4/29/1983 10:32    7.45 14 161.00 1106 481.0 True x
5/12/1983 10:45    6.67 15 152.00 826.1 339.1 True x
5/19/1983 10:18    6.68 13 293.00 829.3 656.3 True x
5/26/1983 10:44    6.08 18 250.00 631.9 426.6 True x
6/16/1983 10:34    5.55 22 268.00 477.3 345.4 True x
6/30/1983 10:15    7.18 25 1,718.00 1005 4,663.0 True x
7/7/1983 09:59    4.86 22 154.00 295.3 122.8 True x
7/21/1983 09:54    4.18 29 36.00 146.3 14.2 True x
7/28/1983 10:31    3.89 27 30.00 96 7.8 True x
8/10/1983 10:01    3.62 25 51.00 60.9 8.4 True x
8/18/1983 10:10    3.54 28 53.00 52.5 7.5 True x
9/2/1983 10:10    3.44 23 64.00 43.1 7.4 True x
9/8/1983 10:26    3.44 21 67.00 43.1 7.8 True x
11/9/1983 10:08    3.89 105.00 395 112.0 True x
12/15/1983 09:51    6.93 157.00 1350 572.0 True x
2/16/1984 15:30    9.47 776.00 2262 4,739.0 True x
3/1/1984 15:45    5.96 168.00 1035 469.0 True x
3/14/1984 15:20    5.33 96.00 814 211.0 True x
3/23/1984 10:00    13.07 491.00 3709 4,917.0 True x
3/26/1984 12:00    11.52 339.00 3056 2,797.0 True x
4/3/1984 10:00    8.07 262.00 1750 1,238.0 True x
4/12/1984 10:30    7.90 13 219.00 1689 999.0 True x
4/16/1984 12:45    9.51 745.00 2276 4,578.0 True x
4/26/1984 12:15    9.14 15 325.00 2148 1,885.0 True x
4/26/1984 13:45    9.09 15 327.00 2131 1,881.0 True x
5/1/1984 10:30    9.54 12 492.00 2287 3,038.0 True x
5/14/1984 12:00    5.72 18 124.00 948 317.0 True x
5/24/1984 10:00    7.91 17 469.00 1692 2,143.0 True x
5/29/1984 12:15    8.66 13 470.00 1969 2,499.0 True x
6/5/1984 10:45    6.02 21 308.00 1056 878.0 True x
6/12/1984 13:00    7.97 23 529.00 1714 2,448.0 True x
6/20/1984 12:45    5.36 26 265.00 824 590.0 True x
6/26/1984 13:00    4.75 24 330.00 631 562.0 True x
7/5/1984 16:30    4.06 26 170.00 440 202.0 True x
7/13/1984 14:45    3.88 28 178.00 392 189.0 True x
7/26/1984 15:00    3.53 24 111.00 307 92.0 True x
7/30/1984 12:00    3.07 24 52.00 194 27.0 True x
8/14/1984 11:30    2.51 25 79.00 77 16.0 True x
8/27/1984 16:00    2.35 26 87.00 46 11.0 True x
9/12/1984 10:15    2.36 23 142.00 48 18.0 True x
9/20/1984 10:15    2.22 20 113.00 25 8.0 True x
9/25/1984 16:00    3.02 20 113.00 184 56.0 True x
10/2/1984 14:00    2.28 13 74.00 34 7.0 True x
10/11/1984 14:30    2.28 19 117.00 34 11.0 True x
10/18/1984 14:45    3.03 14 82.00 186 41.0 True x
10/24/1984 15:45    2.95 11 61.00 168 28.0 True x
10/29/1984 16:00    2.97 12 99.00 173 46.0 True x
11/8/1984 14:00    3.41 10 100.00 275 74.0 True x
11/13/1984 14:00    3.55 108.00 311 91.0 True x
11/19/1984 14:30    3.09 146.00 198 78.0 True x
11/28/1984 16:30    3.70 129.00 347 121.0 True x
12/10/1984 15:15    3.05 103.00 190 53.0 True x
12/17/1984 15:00    4.37 78.00 521 110.0 True x
12/27/1984 16:00    5.29 105.00 801 227.0 True x
1/11/1985 14:15    4.80 64.00 646 112.0 True x
1/18/1985 14:00    5.40 50.00 837 113.0 True x
1/23/1985 13:30    4.48 122.00 551 181.0 True x
2/22/1985 14:50    16.88  1,015.00 8244 22,593.0 True x
3/5/1985 15:30    23.80  3,110.00 23470 197,078.0 True x
3/11/1985 14:50    11.89 848.00 3765 8,620.0 True x
3/11/1985 17:00    12.30  881.00 4054 9,643.0 True x
3/22/1985 09:30    7.12  201.00 1349 732.0 True x
4/7/1985 17:00    7.29 212.00 1416 810.0 True x
4/14/1985 15:30    6.90 15 157.00 1265 536.0 True x
4/21/1985 18:00    5.38 22 163.00 744 327.0 True x
4/23/1985 16:30    5.30 21 143.00 721 278.0 True x
4/28/1985 18:00    4.92 19 153.00 616 254.0 True x
5/9/1985 16:30    4.37 22 135.00 475 173.0 True x
5/12/1985 19:30    4.34 22 150.00 467 189.0 True x
5/17/1985 10:00    6.63 15 1,160.00 1166 3,652.0 True x
5/27/1985 15:00    4.50 21 201.00 510 277.0 True x
6/2/1985 18:30    4.30 23 74.00 457 91.0 True x
6/5/1985 14:00    4.16 20 156.00 422 178.0 True x
6/9/1985 20:30    3.92 24 42.00 365 41.0 True x
6/17/1985 13:30    3.77 22 81.00 333 73.0 True x
6/24/1985 12:00    4.37  333.00 475 427.0 True x
7/1/1985 19:30    3.72  216.00 322 188.0 True x
7/7/1985 14:45    3.18  53.00 214 31.0 True x
7/15/1985 19:00    3.28  44.00 233 28.0 True x
7/21/1985 19:30    2.65 26 31.00 121 10.0 True x
7/23/1985 13:45    2.63 26 56.00 118 18.0 True x
7/29/1985 17:30    2.43 25 64.00 89 15.0 True x
8/4/1985 18:40    2.38 22 108.00 82 24.0 True x
8/12/1985 18:00    2.22 27 72.00 62 12.0 True x
8/19/1985 17:40    2.30 22 81.00 72 16.0 True x
8/25/1985 12:30    2.10 20 108.00 47 14.0 True x
8/28/1985 13:45    2.20 24 48.00 60 8.0 True x
8/31/1985 18:30    2.11 23 110.00 48 14.0 True x
9/8/1985 18:45    1.95 29 60.00 31 5.0 True x
9/23/1985 11:45    2.25 17 71.00 66 13.0 True x
9/29/1985 17:45    2.08 16 60.00 44 7.0 True x
10/14/1985 12:00    2.62 14 314.00 117 99.0 True x
10/19/1985 13:40    3.80 15 218.00 339 199.0 True x
10/27/1985 16:00    2.87 14 169.00 157 72.0 True x
11/10/1985 16:00    8.61 1,150.00 1952 6,061.0 True x
11/13/1985 10:45    6.67 788.00 1181 2,513.0 True x
11/16/1985 16:45    11.42 464.00 3450 4,322.0 True x
11/19/1985 14:30    19.34 12 888.00 11720 28,100.0 True x
11/24/1985 17:00    9.00 259.00 2142 1,498.0 True x
12/1/1985 13:00    13.85 1,690.00 5173 23,604.0 True x
12/8/1985 17:15    6.99 192.00 1299 673.0 True x
12/16/1985 15:30    7.79 145.00 1611 631.0 True x
1/19/1986 17:00    8.97 271.00 2127 1,556.0 True x
1/27/1986 17:00    4.12 121.00 412 135.0 True x
2/2/1986 17:00    4.04 194.00 393 206.0 True x
2/19/1986 09:30    11.90 1,055.00 3772 10,744.0 True x
2/25/1986 16:15    4.91 150.00 613 248.0 True x
3/2/1986 16:50    5.83 326.00 885 779.0 True x
3/5/1986 13:30    7.74 782.00 1592 3,361.0 True x
3/11/1986 17:30    8.88 7,300.00 2083 41,056.0 True x
3/17/1986 16:15    5.21 246.00 695 462.0 True x
3/23/1986 16:30    5.05 234.00 651 411.0 True x
3/30/1986 17:45    4.44 12 211.00 494 281.0 True x
4/6/1986 18:00    4.03 16 153.00 391 161.0 True x
4/13/1986 17:30    3.75 15 146.00 328 129.0 True x
4/20/1986 18:00    3.60 14 145.00 298 117.0 True x
4/27/1986 20:15    3.37 21 168.00 250 113.0 True x
4/30/1986 09:43    3.40 18 119.00 257 83.0 True x
5/5/1986 13:30    3.75 18 291.00 328 258.0 True x
5/11/1986 15:15    3.46 20 286.00 269 208.0 True x
5/18/1986 12:20    7.96 16 3,878.00 1678 17,570.0 True x
5/26/1986 16:00    4.50 17 440.00 510 606.0 True x
6/2/1986 07:15    3.85 28 220.00 350 208.0 True x
6/10/1986 10:15    3.78 23 312.00 335 282.0 True x
6/15/1986 13:00    3.80 21 339.00 339 310.0 True x
6/17/1986 13:15    3.69 25 275.00 316 235.0 True x
6/24/1986 07:10    3.18 23 211.00 214 122.0 True x
7/1/1986 14:00    7.12 22 3,156.00 1349 11,495.0 True x
7/6/1986 16:00    3.78 28 338.00 335 306.0 True x
7/14/1986 17:00    7.35 24 1,098.00 1439 4,266.0 True x
7/22/1986 13:30    3.81 27 207.00 341 191.0 True x
7/27/1986 14:40    3.34 28 73.00 244 48.0 True x
7/31/1986 13:40    12.05 22 3,887.00 3876 40,678.0 True x
8/6/1986 16:40    4.87 21 1,185.00 603 1,929.0 True x
8/13/1986 18:30    2.97 21 51.00 176 24.0 True x
8/17/1986 19:00    2.92 25 66.00 166 30.0 True x
8/27/1986 14:30    2.93 22 40.00 168 18.0 True x
9/3/1986 20:00    2.27 22 64.00 68 12.0 True x
9/9/1986 10:50    2.15 11 59.00 53 8.0 True x
9/17/1986 14:00    2.18 18 124.00 57 19.0 True x
9/17/1986 18:15    2.18 17 84.00 57 13.0 True x
9/24/1986 18:20    6.32 20 1,684.00 1054 4,792.0 True x
10/1/1986 18:00    10.68 17 637.00 3503 6,024.8 True x
10/9/1986 18:45    8.25 14 332.00 2175 1,949.7 True x
10/19/1986 17:00    5.34 11 124.00 935.9 313.3 True x
10/27/1986 18:50    10.86 11 537.00 3613 5,238.5 True x
10/30/1986 13:50    7.52 13 234.00 1828 1,154.9 True x
11/2/1986 13:15    6.45 10 108.00 1362 397.2 True x
11/9/1986 16:40    5.28 88.00 915 217.4 True x
11/16/1986 17:15    4.84 58.00 756.6 118.5 True x
11/24/1986 14:15    4.53 36.00 641.7 62.4 True x
12/1/1986 16:40    4.43  54.00 606.8 88.5 True x
12/7/1986 15:50    7.15  416.00 1664 1,869.0 True x
12/14/1986 15:30    5.65  160.00 1048 452.7 True x
12/19/1986 13:30    5.19 101.00 883.9 241.0 True x
12/22/1986 15:00    4.79 61.00 737.4 121.4 True x
12/28/1986 17:00    4.46 44.00 617.2 73.3 True x
1/4/1987 13:00    4.23 47.00 540.5 68.6 True x
1/11/1987 16:00    4.23 161.00 540.5 235.0 True x
1/21/1987 17:00    4.95 129.00 799.9 278.6 True x
2/1/1987 17:00    4.57 137.00 655.9 242.6 True x
2/9/1987 17:00    4.34 146.00 577 227.5 True x
2/18/1987 14:00    3.81 115.00 411.2 127.7 True x
2/20/1987 13:15    3.87 63.00 428.5 72.9 True x
2/23/1987 11:15    3.80 122.00 408.4 134.5 True x
3/2/1987 16:00    4.75 201.00 722.2 391.9 True x
3/8/1987 15:00    3.97 12 135.00 458.1 167.0 True x
3/17/1987 17:45    4.01 121.00 470.3 153.6 True x
3/22/1987 17:15    3.83 12 111.00 416.9 124.9 True x
3/30/1987 16:00    7.25 655.00 1708 3,020.6 True x
3/31/1987 13:45    6.43 548.00 1354 2,003.4 True x
3/31/1987 14:15    6.40 430.00 1341 1,556.9 True x
4/6/1987 18:20    4.67 11 77.00 692.3 143.9 True x
4/14/1987 12:20    5.33 13 48.00 932.4 120.8 True x
4/20/1987 12:45    4.85 20 127.00 760.5 260.8 True x
4/28/1987 13:00    4.25 18 199.00 547.2 294.0 True x
5/4/1987 11:15    3.97 16 108.00 458.1 133.6 True x
5/11/1987 16:00    3.62 24 44.00 359.2 42.7 True x
5/13/1987 14:00    3.54 21 87.00 338.5 79.5 True x
5/18/1987 10:50    3.38 23 70.00 299.1 56.5 True x
5/25/1987 16:20    4.73 17 704.00 714.6 1,358.3 True x
6/2/1987 20:50    4.35 23 1,094.00 580.2 1,713.8 True x
6/8/1987 13:00    3.43 25 257.00 311.1 215.9 True x
6/16/1987 18:20    3.03 30 100.00 222.3 60.0 True x
6/22/1987 12:15    3.56 26 602.00 343.6 558.5 True x
6/29/1987 18:30    2.75 26 51.00 170 23.4 True x
6/30/1987 14:15    2.78 24 82.00 175.2 38.8 True x
6/30/1987 14:50    2.78 23 126.00 175.2 59.6 True x
7/5/1987 13:00    2.65 27 68.00 150.4 27.6 True x
7/14/1987 17:50    2.35 26 66.00 100.4 17.9 True x
7/20/1987 11:30    2.18 30 80.00 77.4 16.7 True x
7/27/1987 20:15    1.90 31 92.00 45.5 11.3 True x
8/3/1987 13:50    2.15 31 86.00 73.5 17.1 True x
8/10/1987 18:30    2.52 28 112.00 127.2 38.5 True x
8/17/1987 09:25    3.42 27 328.00 308.7 273.4 True x
8/18/1987 13:30    2.78 27 113.00 175.2 53.5 True x
9/1/1987 12:00    3.59 20 247.00 351.3 234.3 True x
9/8/1987 18:15    2.93 25 93.00 202.7 50.9 True x
9/13/1987 17:00    2.68 23 52.00 156.1 21.9 True x
9/21/1987 17:15    3.00 18 126.00 216.4 73.6 True x
9/28/1987 17:20    2.69 22 33.00 158.1 14.1 True x
9/30/1987 12:15    2.73 18 97.00 166 43.5 True x
9/30/1987 12:45    2.75 18 90.00 170 41.3 True x
4/21/1992 15:53    8.54 12 1,919.00 831.2 4,306.6 True x
10/6/1993 14:15    5.74 15 169.00 1006 461.7 True x
10/6/1993 14:55    5.74 17 161.00 1006 437.7 True x
11/22/1993 10:58    4.44 110.00 592.3 177.4 True x
11/22/1993 11:58    4.43 116.00 589.4 184.9 True x
12/9/1993 10:00    5.75 180.00 1010 491.8 True x
3/30/1994 14:03    4.82 172.00 704 327.4 True x
3/30/1994 14:36    4.82 141.00 704 268.5 True x
5/13/1994 10:50    5.67 17 150.00 981.5 399.3 True x
5/13/1994 11:32    5.66 18 178.00 978 471.6 True x
9/1/1994 13:33    2.43 20 44.00 114.1 13.7 True x
9/1/1994 14:02    2.44 20 81.00 115.7 25.5 True x
10/13/1994 10:24    2.30 13 82.00 93.9 21.0 True x
10/13/1994 11:03    2.29 13 68.00 92.4 17.0 True x
11/2/1994 09:48    3.20 75.00 261.3 53.3 True x
11/2/1994 10:13    3.21 74.00 263.5 53.0 True x
11/2/1994 11:43    3.25 85.00 272.3 62.9 True x
11/9/1994 10:10    3.00 10 196.00 220 116.4 True x
11/16/1994 11:43    3.25 249.00 272.3 183.3 True x
11/23/1994 10:32    4.08 206.00 493.3 274.8 True x
11/30/1994 09:32    4.10 191.00 500 258.9 True x
12/7/1994 12:09    7.49 220.00 1669 992.9 True x
12/14/1994 09:02    5.67 193.00 981.5 512.0 True x
12/21/1994 08:32    4.63 193.00 647 338.4 True x
12/28/1994 12:21    4.27 197.00 545.2 290.2 True x
1/4/1995 13:40    3.56 181.00 348.3 170.5 True x
1/11/1995 14:17    3.41 173.00 306.6 143.6 True x
1/18/1995 15:20    5.38 226.00 882.4 540.0 True x
1/25/1995 16:17    4.94 176.00 741.1 352.7 True x
2/1/1995 12:02    4.13 187.00 507.8 256.7 True x
2/8/1995 15:24    3.71 212.00 384.8 220.3 True x
2/15/1995 10:05    3.92 174.00 443.5 208.7 True x
2/22/1995 09:30    7.02 216.00 1478 864.3 True x
2/22/1995 11:01    6.99 176.00 1466 697.5 True x
3/1/1995 15:00    5.55 166.00 939.9 421.9 True x
3/7/1995 11:58    4.84 177.00 710.1 341.2 True x
3/7/1995 12:30    4.84 180.00 710.1 346.7 True x
3/7/1995 16:00    4.80 10 247.00 697.9 465.7 True x
3/15/1995 06:30    4.77 275.00 688.7 511.5 True x
3/21/1995 08:00    4.42 292.00 586.6 463.7 True x
3/29/1995 13:00    4.48 491.00 603.6 800.9 True x
4/5/1995 19:00    3.98 12 303.00 461.1 377.9 True x
4/12/1995 06:30    15.58 10 291.00 6093 4,795.6 True x
4/19/1995 09:56    9.75 13 658.00 2718 4,834.8 True x
4/19/1995 10:36    9.67 13 635.00 2678 4,595.3 True x
4/25/1995 07:30    6.35 12 276.00 1224 913.8 True x
5/3/1995 08:00    6.00 16 281.00 1100 836.5 True x
5/10/1995 16:00    17.12 18 273.00 7190 5,307.4 True x
5/18/1995 16:30    12.82 18 314.00 4405 3,744.6 True x
5/24/1995 07:30    8.05 18 261.00 1910 1,350.0 True x
5/30/1995 08:00    18.78 20 301.00 8460 6,877.3 True x
6/6/1995 09:00    8.26 22 242.00 2004 1,310.6 True x
6/7/1995 18:23    8.05 23 306.00 1910 1,579.9 True x
6/7/1995 18:52    8.05 23 291.00 1910 1,500.8 True x
6/12/1995 09:05    6.85 27 43.00 1412 165.9 True x
6/14/1995 16:40    6.07 22 287.00 1124 871.0 True x
6/19/1995 15:30    5.18 27 57.00 817 126.4 True x
6/21/1995 15:30    5.17 24 247.00 813.7 543.1 True x
6/26/1995 10:00    5.41 28 44.00 892.5 106.1 True x
6/28/1995 16:00    6.09 24 246.00 1131 752.2 True x
7/2/1995 17:30    4.50 27 56.00 609.3 92.7 True x
7/5/1995 09:05    5.50 28 297.00 922.8 741.2 True x
7/9/1995 09:30    6.44 28 50.00 1257 171.1 True x
7/16/1995 10:30    4.40 27 95.00 581 149.9 True x
7/19/1995 14:56    4.34 28 197.00 564.4 300.6 True x
7/19/1995 15:36    4.33 28 158.00 561.6 239.9 True x
7/23/1995 18:00    4.19 29 71.00 523.7 100.6 True x
7/31/1995 16:00    3.65 28 49.00 368.9 49.5 True x
8/6/1995 15:30    3.75 28 60.00 395.7 65.0 True x
8/13/1995 11:30    3.50 28 57.00 330.8 50.9 True x
8/21/1995 09:05    3.38 28 59.00 301.9 48.9 True x
8/27/1995 16:00    2.79 27 40.00 177.9 19.4 True x
9/1/1995 15:04    2.93 28 67.00 205.5 37.6 True x
9/1/1995 15:27    2.92 28 61.00 203.4 34.0 True x
9/4/1995 15:05    2.46 27 58.00 119.1 18.9 True x
9/11/1995 10:05    2.46 26 51.00 119.1 16.5 True x
9/18/1995 09:15    2.31 26 31.00 95.3 8.2 True x
9/26/1995 08:00    2.28 26 25.00 91 6.2 True x
10/1/1995 09:10    3.52 77.00 240.5 50.5 True x
10/11/1995 08:00    2.60 124.00 79.8 26.9 True x
10/16/1995 14:07    2.65 13 66.00 86 15.5 True x
10/16/1995 14:28    2.64 13 76.00 84.8 17.5 True x
10/18/1995 09:30    2.59 134.00 78.6 28.6 True x
10/25/1995 10:15    2.58 112.00 77.4 23.4 True x
11/1/1995 08:35    3.13 100.00 159.9 43.4 True x
11/8/1995 09:00    3.28 113.00 188.7 57.7 True x
11/15/1995 09:30    4.07 100.00 384.2 103.9 True x
11/22/1995 08:05    3.64 125.00 269.3 91.2 True x
11/29/1995 09:10    3.50 116.00 235.9 74.4 True x
11/30/1995 14:55    3.32 115.00 196.8 61.2 True x
11/30/1995 15:17    3.31 136.00 194.7 71.9 True x
12/6/1995 10:15    3.33 94.00 198.9 50.5 True x
12/13/1995 09:00    3.50 144.00 235.9 92.0 True x
12/21/1995 12:00    3.22 129.00 176.8 61.7 True x
12/27/1995 08:05    2.92 137.00 124.3 46.2 True x
1/3/1996 16:00    2.91 136.00 122.7 45.3 True x
1/10/1996 10:10    2.74 121.00 97.9 32.0 True x
1/17/1996 09:30    3.13 113.00 159.9 49.1 True x
1/25/1996 15:30    3.96 144.00 353.7 138.3 True x
1/31/1996 09:30    3.19 146.00 171.1 67.6 True x
2/7/1996 10:30    3.20 139.00 173 65.0 True x
2/14/1996 10:30    3.96 43.00 353.7 41.7 True x
2/20/1996 09:30    3.39 141.00 211.5 80.6 True x
2/28/1996 10:00    3.56 136.00 249.9 92.0 True x
3/7/1996 08:30    3.75 240.00 297.4 193.4 True x
3/13/1996 10:30    3.69 255.00 281.9 194.3 True x
3/18/1996 14:52    3.25 52.00 182.7 25.9 True x
3/18/1996 15:19    3.25 35.00 182.7 17.5 True x
3/20/1996 08:30    3.22 235.00 176.8 112.3 True x
3/27/1996 09:30    3.24 136.00 180.7 66.6 True x
4/4/1996 08:00    3.14 232.00 161.8 101.6 True x
4/10/1996 09:30    3.00 202.00 137.2 75.1 True x
4/18/1996 09:00    3.31 200.00 194.7 105.4 True x
4/24/1996 11:00    3.40 202.00 213.7 117.1 True x
5/1/1996 08:30    3.92 189.00 342.5 175.2 True x
5/7/1996 08:00    4.05 11 225.00 378.7 230.4 True x
5/9/1996 14:24    8.35 17 2,765.00 1958 14,622.6 True x
5/9/1996 14:45    8.40 17 2,860.00 1979 15,285.2 True x
5/15/1996 09:05    6.85 86.00 1351 314.3 True x
5/22/1996 08:00    5.71 10 78.00 928.9 196.6 True x
5/29/1996 07:30    20.54 12 86.00 9633 2,257.7 True x
6/5/1996 11:00    14.87 11 75.00 5469 1,114.1 True x
6/12/1996 09:00    7.94 11 95.00 1784 458.1 True x
6/19/1996 08:00    6.97 11 85.00 1398 324.0 True x
6/24/1996 14:38    5.86 27 297.00 983.1 790.1 True x
6/24/1996 14:56    5.88 27 285.00 990.5 763.4 True x
6/26/1996 10:30    5.43 13 77.00 826.8 172.1 True x
7/3/1996 08:30    4.65 13 66.00 560.1 101.2 True x
7/10/1996 09:30    4.04 79.00 375.9 80.5 True x
7/17/1996 10:30    3.89 10 83.00 334.3 75.2 True x
7/24/1996 08:00    5.37 14 124.00 805.1 270.8 True x
7/30/1996 09:30    4.05 13 78.00 378.7 80.1 True x
8/7/1996 10:15    3.39 15 66.00 211.5 37.9 True x
8/13/1996 07:00    2.97 15 67.00 132.3 24.2 True x
8/21/1996 07:30    3.28 18 65.00 188.7 33.6 True x
8/28/1996 08:30    2.84 18 76.00 112.1 23.2 True x
9/3/1996 06:30    2.55 17 80.00 73.9 16.1 True x
9/3/1996 14:20    2.60 27 71.00 79.8 15.4 True x
9/3/1996 14:32    2.60 27 71.00 79.8 15.4 True x
9/11/1996 07:10    2.52 18 83.00 70.5 15.9 True x
9/18/1996 06:30    2.50 18 65.00 68.3 12.0 True x
9/24/1996 06:00    2.29 19 77.00 47.3 9.8 True x
10/1/1996 06:30    2.52 18 57.00 70.5 11.0 True x
10/9/1996 06:00    2.23 17 49.00 42.2 5.6 True x
10/15/1996 07:00    2.23 18 60.00 42.2 6.9 True x
10/15/1996 14:07    2.24 18 45.00 43 5.2 True x
10/15/1996 14:24    2.24 18 89.00 43 10.3 True x
10/23/1996 10:00    2.70 183.00 92.5 45.9 True x
10/30/1996 09:30    2.46 120.00 63.9 20.9 True x
11/6/1996 11:00    2.47 110.00 65 19.3 True x
11/13/1996 09:00    2.58 174.00 77.4 36.4 True x
11/20/1996 08:00    2.96 115.00 130.7 40.9 True x
11/27/1996 10:30    2.43 198.00 60.8 32.6 True x
12/3/1996 09:00    2.84 191.00 112.1 58.0 True x
12/11/1996 09:30    2.71 166.00 93.8 42.2 True x
12/11/1996 14:38    2.77 97.00 102 26.8 True x
12/11/1996 14:53    2.77 97.00 102 26.8 True x
12/18/1996 08:00    2.59 102.00 78.6 21.8 True x
12/26/1996 07:30    2.57 157.00 76.3 32.5 True x
1/2/1997 09:30    2.71 118.00 93.8 30.1 True x
1/8/1997 08:00    2.86 126.00 115.1 39.3 True x
1/15/1997 14:30    2.29 106.00 47.3 13.6 True x
1/22/1997 08:30    2.91 158.00 122.7 52.4 True x
1/29/1997 09:00    3.64 174.00 269.3 126.7 True x
2/4/1997 08:30    5.47 84.00 841.5 191.3 True x
2/12/1997 07:30    3.63 174.00 266.8 125.9 True x
2/19/1997 09:00    5.39 112.00 812.3 247.1 True x
2/26/1997 07:00    7.05 161.00 1429 624.5 True x
3/3/1997 14:56    11.84 660.00 3670 6,547.4 True x
3/3/1997 15:15    11.77 678.00 3632 6,655.1 True x
3/5/1997 09:00    8.53 91.00 2036 504.0 True x
3/12/1997 07:45    5.91 166.00 1002 450.7 True x
3/19/1997 11:00    5.48 203.00 845.2 465.3 True x
3/26/1997 08:00    5.17 10 124.00 734.4 246.7 True x
4/2/1997 09:30    4.48 141.00 506.3 194.1 True x
4/9/1997 07:15    4.26 10 170.00 439 201.7 True x
4/15/1997 08:00    9.87 185.00 2654 1,326.2 True x
4/21/1997 14:24    6.18  58.00 1099 174.3 True x
4/21/1997 14:41    6.18  60.00 1099 178.5 True x
4/23/1997 10:00    5.76 136.00 1099 404.6 True x
4/30/1997 16:00    4.99 111.00 672.4 202.8 True x
5/7/1997 09:30    4.70 10 167.00 576.5 260.6 True x
5/14/1997 14:00    4.38 11 181.00 475.7 233.4 True x
5/21/1997 08:30    4.57 14 188.00 534.5 271.4 True x
5/28/1997 08:00    4.92 13 118.00 649.1 207.2 True x
6/4/1997 09:20    4.10 15 140.00 392.6 149.4 True x
6/4/1997 13:37    4.10 20 169.00 392.6 179.3 True x
6/4/1997 13:51    4.10 20 168.00 392.6 178.2 True x
6/11/1997 08:00    4.58 68.00 537.6 99.0 True x
6/18/1997 07:30    6.07 95.00 1060 273.2 True x
6/25/1997 08:00    4.15 85.00 406.8 94.4 True x
7/2/1997 09:30    4.39 79.00 478.9 103.0 True x
7/10/1997 10:00    3.43 97.00 220.2 58.1 True x
7/16/1997 07:30    3.19 89.00 171.1 41.1 True x
7/22/1997 14:21    6.25 26 1,109.00 1124 3,367.9 True x
7/22/1997 14:37    6.25 26 1,075.00 1124 3,263.6 True x
7/23/1997 07:30    4.73 86.00 586.5 137.0 True x
7/30/1997 07:00    2.81 112.00 107.7 32.8 True x
8/6/1997 08:30    2.90 109.00 121.2 35.7 True x
8/13/1997 08:00    4.53 85.00 521.9 120.6 True x
8/20/1997 06:30    7.37 89.00 1553 375.8 True x
8/27/1997 08:00    4.01 89.00 367.7 88.8 True x
9/3/1997 07:00    10.20 94.00 2815 721.8 True x
9/9/1997 13:12    4.13 22 176.00 401.1 191.6 True x
9/9/1997 13:21    4.14 22 159.00 403.9 173.7 True x
9/10/1997 07:30    4.01 83.00 367.7 83.3 True x
9/17/1997 08:00    3.84 86.00 320.9 75.2 True x
9/25/1997 09:00    3.61 100.00 261.9 70.8 True x
10/1/1997 08:00    3.25 99.00 182.7 48.9 True x
10/22/1997 07:00    3.04 83.00 144 32.5 True x
10/22/1997 13:04    3.02 121.00 140.6 46.1 True x
10/22/1997 13:16    3.02  127.00 140.6 48.2 True x
10/29/1997 07:30    4.69 95.00 573.2 148.1 True x
11/5/1997 17:30    4.11 87.00 395.4 93.7 True x
11/19/1997 16:00    4.40 102.00 482 132.9 True x
11/26/1997 16:00    4.04 58.00 375.9 59.0 True x
12/3/1997 17:00    6.05 106.00 1053 303.8 True x
12/10/1997 08:00    5.03 74.00 686 137.9 True x
12/23/1997 09:00    4.64 91.00 556.9 137.7 True x
12/23/1997 14:04    4.66 49.00 563.4 74.6 True x
12/23/1997 14:15    4.67  59.00 566.7 91.1 True x
1/7/1998 08:00    11.81 167.00 3654 1,648.2 True x
1/13/1998 08:00    8.88 158.00 2191 935.8 True x
1/21/1998 08:30    6.55 163.00 1235 546.6 True x
1/28/1998 07:30    5.51 177.00 856.3 410.1 True x
2/3/1998 13:18    10.06 368.00 2746 2,730.7 True x
2/3/1998 13:45    10.03  174.00 2731 1,287.3 True x
2/4/1998 08:00    9.32 169.00 2393 1,095.1 True x
3/11/1998 08:00    11.08 149.00 3263 1,318.7 True x
3/16/1998 15:09    7.98 160.00 1801 782.6 True x
3/16/1998 15:23    7.98  163.00 1801 792.6 True x
3/18/1998 08:00    17.91 164.00 7535 3,354.7 True x
3/25/1998 08:00    8.99 172.00 2241 1,046.6 True x
4/1/1998 08:00    11.40 119.00 3433 1,109.3 True x
4/8/1998 10:00    8.86 243.00 2182 1,436.7 True x
4/15/1998 08:00    9.37 187.00 2416 1,222.5 True x
4/22/1998 08:00    7.59 10 81.00 1641 362.5 True x
4/29/1998 07:00    6.28 12 179.00 1135 549.0 True x
5/6/1998 08:00    6.53 16 168.00 1228 557.9 True x
5/8/1998 15:05    15.85 17 1,740.00 6107 28,704.2 True x
5/8/1998 15:26    15.86  1,698.00 6114 28,044.8 True x
5/13/1998 08:30    7.97 11 118.00 1797 574.8 True x
5/20/1998 07:30    7.42 13 351.00 1573 1,492.6 True x
5/27/1998 07:00    6.75 17 252.00 1312 894.0 True x
6/4/1998 08:00    5.29 16 212.00 776.5 446.0 True x
6/10/1998 08:30    9.12 19 259.00 2300 1,609.6 True x
6/17/1998 07:00    17.17 26 268.00 7009 5,086.5 True x
6/25/1998 07:30    8.01 20 324.00 1813 1,586.7 True x
6/25/1998 15:30    7.69 25 267.00 1681 1,214.3 True x
6/25/1998 15:44    7.68  243.00 1677 1,101.1 True x
7/1/1998 07:00    8.82 25 119.00 2164 699.8 True x
7/7/1998 07:00    6.06 25 310.00 1056 884.0 True x
8/3/1998 14:44    3.19 26 100.00 171.1 46.3 True x
8/3/1998 14:54    3.19  70.00 171.1 32.5 True x
8/27/1998 14:48    2.91 27 98.00 122.7 32.6 True x
9/4/1998 15:38    2.74 28 137.00 97.9 36.3 True x
9/10/1998 15:45    2.58 23 102.00 77.4 21.5 True x
9/17/1998 16:06    3.08 23 94.00 151 38.5 True x
9/21/1998 14:48    2.65 22 109.00 86 25.5 True x
9/21/1998 14:59    2.65  105.00 86 24.5 True x
9/24/1998 15:53    2.80 19 75.00 106.3 21.5 True x
10/1/1998 16:00    2.65 19 122.00 86 28.5 True x
10/9/1998 17:05    3.45 15 88.00 224.6 53.8 True x
10/15/1998 16:03    2.94 17 177.00 127.5 61.3 True x
10/23/1998 14:38    5.77 12 214.00 950.4 550.2 True x
10/29/1998 16:00    5.30 16 255.00 780.1 537.5 True x
11/4/1998 13:40    5.19 10 161.00 741.5 322.6 True x
11/4/1998 13:52    5.19  163.00 741.5 327.8 True x
11/5/1998 15:38    4.98 157.00 669.1 285.1 True x
11/15/1998 12:35    6.65 267.00 1273 920.7 True x
11/20/1998 15:35    5.34 172.00 794.3 370.0 True x
11/27/1998 16:06    4.56 135.00 531.3 194.8 True x
12/4/1998 15:22    4.26 13 136.00 439 161.8 True x
12/10/1998 14:10    6.63 156.00 1266 533.2 True x
12/10/1998 14:54    6.59 118.00 1251 401.8 True x
12/10/1998 15:06    6.58  124.00 1247 420.0 True x
12/17/1998 14:42    5.05 166.00 692.8 311.2 True x
12/26/1998 09:00    5.28 179.00 773 374.3 True x
1/25/1999 16:00    17.22 411.00 7044 7,829.2 True x
2/1/1999 15:46    9.23 271.00 2351 1,726.2 True x
2/3/1999 13:13    10.32 253.00 2875 1,967.5 True x
2/3/1999 13:29    10.33  223.00 2880 1,736.0 True x
2/8/1999 10:12    7.40 221.00 1565 937.0 True x
2/16/1999 16:00    6.62 239.00 1262 817.7 True x
2/22/1999 16:00    5.37 210.00 805.1 458.6 True x
3/3/1999 16:00    4.89 165.00 639.2 285.2 True x
3/10/1999 15:36    4.93 133.00 652.4 235.6 True x
3/17/1999 14:26    6.27 11 230.00 1132 703.6 True x
3/18/1999 13:16    6.96 199.00 1394 750.6 True x
3/18/1999 13:30    6.95  195.00 1390 732.7 True x
3/23/1999 16:10    5.23 126.00 755.4 257.1 True x
4/1/1999 16:00    4.57 14 127.00 534.5 183.7 True x
4/7/1999 16:00    4.53 17 127.00 521.9 180.3 True x
4/17/1999 18:45    13.85 1,078.00 4833 14,069.3 True x
4/22/1999 17:00    7.68 13 261.00 1677 1,182.0 True x
4/26/1999 14:15    7.98 14 275.00 1801 1,340.0 True x
4/26/1999 14:28    7.97  274.00 1797 1,333.1 True x
4/29/1999 15:40    13.08 11 998.00 4373 11,785.7 True x
5/6/1999 17:00    7.04 15 236.00 1425 908.6 True x
5/14/1999 19:40    17.05 17 935.00 6925 17,484.3 True x
5/20/1999 19:48    9.29 17 332.00 2379 2,138.3 True x
5/27/1999 16:00    6.58 19 195.00 1247 657.2 True x
6/3/1999 16:17    7.56 20 608.00 1629 2,677.6 True x
6/9/1999 13:42    10.33 23 1,303.00 2880 10,136.5 True x
6/9/1999 13:55    10.36  1,278.00 2895 9,992.3 True x
6/11/1999 18:30    8.77 24 1,083.00 2142 6,264.0 True x
6/18/1999 18:30    6.40 20 368.00 1179 1,171.5 True x
6/25/1999 18:02    6.07 26 808.00 1060 2,315.3 True x
7/3/1999 16:50    5.59 27 324.00 886.2 777.4 True x
7/9/1999 18:00    4.20 27 199.00 421.3 226.8 True x
7/16/1999 18:17    3.48 29 99.00 231.4 62.3 True x
7/20/1999 14:05    5.07 29 504.00 699.6 953.2 True x
7/20/1999 14:16    5.08  516.00 703.1 979.6 True x
7/23/1999 18:41    3.35 32 125.00 203 68.8 True x
7/29/1999 20:00    3.63 31 222.00 266.8 160.0 True x
8/5/1999 15:20    2.75 27 64.00 99.3 17.4 True x
8/12/1999 15:50    3.47 26 174.00 229.1 108.2 True x
8/20/1999 17:30    2.63 25 54.00 83.5 12.2 True x
8/27/1999 14:56    2.99 26 91.00 135.6 33.5 True x
9/2/1999 17:36    2.48 26 48.00 66.1 8.7 True x
9/9/1999 17:00    2.30 21 51.00 48.2 6.7 True x
9/16/1999 15:50    2.28 18 98.00 46.5 12.4 True x
9/23/1999 15:30    2.29 17 68.00 47.3 8.7 True x
9/30/1999 15:45    4.51 15 303.00 515.6 423.1 True x
10/7/1999 15:30    3.07 14 59.00 149.2 23.8 True x
10/14/1999 15:30    2.67 14 52.00 88.6 12.7 True x
10/21/1999 15:30    2.59 11 53.00 78.6 11.4 True x
10/30/1999 13:00    2.60 14 154.00 79.8 33.3 True x
11/7/1999 10:00    2.60 152.00 79.8 33.0 True x
11/11/1999 16:00    2.60 10 164.00 79.8 35.5 True x
11/22/1999 16:00    2.59 158.00 78.6 33.8 True x
12/3/1999 10:40    2.78 121.00 103.4 34.0 True x
12/11/1999 11:30    3.20 107.00 173 50.2 True x
12/16/1999 15:30    2.59 -1 122.00 78.6 25.9 True x
12/23/1999 16:00    2.70 -2 160.00 92.5 40.1 True x
1/1/2000 16:15    2.86 -1 156.00 115.1 48.6 True x
1/7/2000 15:30    2.84 -1 132.00 112.1 40.1 True x
1/11/2000 16:30    3.00 132.00 137.2 49.0 True x
1/20/2000 16:30    2.89 -2 148.00 119.6 48.0 True x
1/31/2000 15:40    2.65 -2 195.00 86 45.3 True x
2/7/2000 16:30    2.90 -2 166.00 121.2 54.4 True x
2/11/2000 15:25    2.99 -2 152.00 135.6 56.0 True x
2/15/2000 14:43    2.92 105.00 124.3 35.5 True x
2/15/2000 14:54    2.92  109.00 124.3 36.7 True x
2/24/2000 15:30    4.93 400.00 652.4 706.0 True x
3/2/2000 16:30    5.09 288.00 706.5 549.8 True x
3/10/2000 14:00    4.23 203.00 430.1 236.7 True x
3/16/2000 15:30    3.99 201.00 362.1 197.4 True x
3/21/2000 14:43    4.76 10 128.00 596.5 206.5 True x
3/21/2000 14:55    4.75  116.00 593.1 187.3 True x
3/24/2000 16:30    4.35 13 211.00 466.4 266.7 True x
3/31/2000 17:15    3.76 13 162.00 300 131.9 True x
4/6/2000 17:11    3.56 12 121.00 249.9 82.1 True x
4/14/2000 17:24    3.47 16 141.00 229.1 87.8 True x
4/21/2000 18:55    8.54 13 1,782.00 2040 9,819.1 True x
4/27/2000 09:40    5.50 14 318.00 852.6 733.5 True x
5/5/2000 14:10    4.33 21 273.00 460.2 340.3 True x
5/10/2000 13:26    5.75 19 430.00 943.2 1,096.2 True x
5/11/2000 14:35    5.40 19 349.00 815.9 769.1 True x
5/11/2000 14:48    5.39  470.00 812.3 1,032.7 True x
5/18/2000 15:00    4.32 22 243.00 457.2 300.8 True x
5/27/2000 16:28    4.99 19 469.00 672.4 852.4 True x
6/1/2000 13:00    10.19 21 977.00 2810 7,413.5 True x
6/10/2000 16:00    4.35 26 238.00 466.4 300.6 True x
6/15/2000 18:00    8.15 23 572.00 1872 2,895.5 True x
6/22/2000 14:14    7.69 23 470.00 1681 2,133.4 True x
6/22/2000 14:27    7.67  460.00 1673 2,081.0 True x
6/22/2000 15:10    7.64 23 534.00 1661 2,396.6 True x
6/29/2000 19:00    7.45 21 302.00 1585 1,294.2 True x
7/7/2000 17:09    7.08 24 423.00 1441 1,649.3 True x
7/19/2000 10:10    4.20 22 229.00 421.3 260.6 True x
7/22/2000 15:41    3.80 24 196.00 310.3 164.3 True x
7/27/2000 17:10    3.39 27 90.00 211.5 51.4 True x
8/1/2000 14:16    3.36 26 65.00 205.1 36.4 True x
8/1/2000 14:31    3.37  67.00 207.2 37.7 True x
8/3/2000 17:32    3.20 27 139.00 173 65.3 True x
8/11/2000 17:10    2.98 29 70.00 133.9 25.3 True x
8/17/2000 16:35    2.63 29 108.00 83.5 24.4 True x
8/22/2000 09:15    2.48 24 97.00 66.1 17.4 True x
8/31/2000 18:55    2.58 30 70.00 77.4 14.8 True x
9/6/2000 13:30    2.28 22 33.00 46.5 4.2 True x
9/6/2000 13:40    2.28  33.00 46.5 4.2 True x
9/8/2000 14:32    2.25 25 35.00 43.9 4.2 True x
9/15/2000 14:45    2.43 20 51.00 60.8 8.4 True x
9/22/2000 08:40    2.28 15 81.00 46.5 10.3 True x
9/27/2000 16:30    3.11 17 99.00 156.3 42.1 True x
10/9/2000 17:45    3.05 10 151.00 145.7 59.5 True x
10/13/2000 17:00    2.85 15 173.00 113.6 53.3 True x
10/17/2000 13:55    2.78 15 121.00 103.4 34.0 True x
10/17/2000 14:07    2.79  130.00 104.8 36.9 True x
10/19/2000 08:54    2.80 13 140.00 106.3 40.2 True x
10/27/2000 09:00    2.75 17 189.00 99.3 50.9 True x
11/2/2000 13:00    2.77 17 203.00 102 56.1 True x
11/10/2000 14:00    3.77 206.00 302.6 168.8 True x
11/16/2000 13:40    3.37 171.00 207.2 95.7 True x
11/26/2000 08:50    3.30 158.00 192.7 82.3 True x
12/1/2000 12:00    3.12 138.00 158.1 59.3 True x
12/5/2000 13:21    2.68 121.00 89.9 29.5 True x
12/5/2000 13:38    2.68  126.00 89.9 30.7 True x
12/8/2000 10:00    3.14 -1 149.00 161.8 65.2 True x
1/16/2001 17:00    4.40 188.00 482 245.0 True x
1/21/2001 17:00    3.65 175.00 271.8 128.8 True x
1/28/2001 08:30    3.69 169.00 281.9 129.0 True x
2/8/2001 11:15    18.07 1,326.00 7651 27,408.7 True x
2/14/2001 14:12    11.15 537.00 3300 4,789.7 True x
2/14/2001 14:29    11.18  525.00 3316 4,704.1 True x
2/15/2001 15:45    11.75 588.00 3621 5,755.7 True x
2/24/2001 15:25    6.60 10 326.00 1254 1,106.0 True x
3/1/2001 15:00    8.00 438.00 1809 2,139.6 True x
3/9/2001 17:10    6.10 279.00 1070 806.5 True x
3/15/2001 16:00    6.20 298.00 1106 891.5 True x
3/21/2001 09:00    8.53 373.00 2036 2,051.0 True x
3/29/2001 08:30    6.00 170.00 1035 476.4 True x
4/6/2001 08:45    6.10 11 177.00 1070 512.3 True x
4/13/2001 14:45    9.05 13 473.00 2268 2,896.8 True x
4/20/2001 07:00    6.72 11 174.00 1300 611.1 True x
4/27/2001 12:53    5.68 18 167.00 918.2 415.7 True x
5/2/2001 13:44    5.05 21 135.00 692.8 254.2 True x
5/2/2001 13:57    5.05  149.00 692.8 279.8 True x
5/4/2001 08:42    4.83 21 156.00 619.7 262.4 True x
5/12/2001 07:00    7.41 19 274.00 1569 1,164.8 True x
5/17/2001 16:20    9.93 22 2,216.00 2683 16,058.9 True x
5/25/2001 17:30    7.24 15 329.00 1502 1,337.0 True x
6/2/2001 13:35    10.23 14 444.00 2830 3,398.4 True x
6/7/2001 10:00    16.42 16 897.00 6491 15,724.1 True x
6/15/2001 08:30    6.95 23 262.00 1390 986.7 True x
6/20/2001 09:00    5.75 22 162.00 943.2 413.1 True x
6/21/2001 14:30    6.30 20 277.00 1142 855.3 True x
6/21/2001 14:44    6.31  267.00 1146 827.4 True x
6/28/2001 17:30    4.90 27 201.00 642.5 349.3 True x
7/5/2001 11:21    4.49 26 218.00 509.4 300.6 True x
7/13/2001 14:15    3.54 27 172.00 245.2 114.0 True x
7/16/2001 18:20    3.30 28 177.00 192.7 92.6 True x
8/1/2001 17:00    2.58 30 137.00 77.4 28.7 True x
8/7/2001 13:29    2.51 30 66.00 69.4 12.4 True x
8/7/2001 13:39    2.51  65.00 69.4 12.3 True x
8/9/2001 08:20    2.42 29 61.00 59.8 10.0 True x
8/16/2001 08:40    2.28 22 54.00 46.5 6.8 True x
8/23/2001 13:00    2.75 26 68.00 99.3 18.5 True x
8/31/2001 17:00    2.15 26 59.00 35.8 5.8 True x
9/8/2001 15:40    2.09 25 57.00 31.4 4.8 True x
9/14/2001 10:30    2.18 19 71.00 38.1 7.4 True x
9/20/2001 14:01    4.21 20 575.00 424.2 658.9 True x
9/20/2001 14:11    4.20  569.00 421.3 647.9 True x
9/21/2001 17:50    3.16 21 190.00 165.4 85.2 True x
9/22/2001 09:00    2.32 14 56.00 50.1 7.7 True x
10/4/2001 13:00    2.11 17 63.00 32.9 5.6 True x
10/12/2001 17:00    2.53 17 84.00 71.6 16.4 True x
10/21/2001 17:00    2.72 14 97.00 95.2 25.0 True x
10/27/2001 17:03    3.03 86.00 142.3 33.2 True x
11/1/2001 10:45    2.97 11 98.00 132.3 35.1 True x
11/6/2001 14:01    2.77  121.00 102 33.4 True x
11/6/2001 14:12    2.76  107.00 100.6 29.2 True x
11/8/2001 12:15    2.77 11 141.00 102 38.9 True x
11/17/2001 12:30    2.63 13 148.00 83.5 33.4 True x
11/24/2001 09:00    2.92 11 101.00 124.3 34.0 True x
11/29/2001 10:00    3.10 92.00 154.5 38.5 True x
12/6/2001 13:40    2.96 10 125.00 130.7 44.4 True x
12/12/2001 09:00    2.88 102.00 118.1 32.8 True x
12/18/2001 13:21    3.22 84.00 176.8 40.5 True x
12/18/2001 13:33    3.22  75.00 176.8 36.1 True x
12/20/2001 16:00    3.05 111.00 145.7 43.9 True x
12/29/2001 08:15    3.19 133.00 171.1 61.6 True x
1/3/2002 13:00    2.68 170.00 89.9 41.4 True x
1/10/2002 13:00    2.90 130.00 121.2 42.7 True x
1/18/2002 11:00    2.55 105.00 73.9 21.1 True x
1/24/2002 12:40    2.82 118.00 109.2 34.9 True x
1/31/2002 14:00    2.96 100.00 130.7 35.3 True x
2/6/2002 14:10    3.04 124.00 144 48.3 True x
2/6/2002 14:25    3.11  117.00 156.3 49.5 True x
2/7/2002 13:00    3.34 124.00 200.9 67.3 True x
2/14/2002 14:00    4.78 142.00 603.2 231.8 True x
2/21/2002 09:00    5.85 266.00 979.5 704.2 True x
2/28/2002 13:30    4.07 117.00 384.2 121.4 True x
3/7/2002 12:40    5.08 166.00 703.1 316.4 True x
3/13/2002 12:40    5.73 190.00 936.1 482.1 True x
3/20/2002 10:00    4.59 149.00 540.8 218.8 True x
3/20/2002 13:55    4.57 148.00 534.5 213.9 True x
3/20/2002 14:07    4.57  162.00 534.5 234.5 True x
3/29/2002 18:00    4.26 160.00 439 190.5 True x
4/4/2002 10:40    4.48 110.00 506.3 150.9 True x
4/12/2002 09:20    8.20 12 341.00 1894 1,746.7 True x
4/19/2002 10:30    5.45 22 424.00 834.1 956.7 True x
4/25/2002 11:00    6.23 11 315.00 1117 950.1 True x
5/1/2002 09:15    7.42 12 238.00 1573 1,012.3 True x
5/8/2002 19:00    5.51 20 266.00 856.3 616.5 True x
5/10/2002 14:26    6.97 18 248.00 1398 938.4 True x
5/10/2002 14:39    6.98  246.00 1402 932.0 True x
5/15/2002 09:00    18.44 14 195.00 7921 4,172.5 True x
5/24/2002 18:00    9.85 15 1,025.00 2644 7,318.7 True x
5/30/2002 14:00    7.15 21 201.00 1467 798.5 True x
6/6/2002 15:50    11.36 18 832.00 3411 7,667.7 True x
6/13/2002 17:20    17.21 20 2,561.00 7037 48,661.8 True x
6/20/2002 08:50    7.27 21 187.00 1514 765.5 True x
6/20/2002 14:20    7.19 23 197.00 1483 792.2 True x
6/20/2002 14:35    7.19  186.00 1483 746.2 True x
6/27/2002 13:00    5.93 25 253.00 1009 691.1 True x
7/5/2002 14:45    4.57 30 248.00 534.5 359.3 True x
7/11/2002 13:30    4.14 25 256.00 403.9 280.1 True x
7/19/2002 16:30    3.47 29 174.00 229.1 107.7 True x
7/25/2002 08:30    2.86 26 145.00 115.1 45.1 True x
7/31/2002 15:30    3.34 30 32.00 200.9 17.9 True x
8/6/2002 14:28    2.74  55.00 97.9 14.8 True x
8/6/2002 14:37    2.74  63.00 97.9 16.8 True x
8/9/2002 14:45    2.63 27 110.00 83.5 24.9 True x
8/15/2002 08:20    6.50 23 1,350.00 1217 4,438.2 True x
8/22/2002 12:40    3.18 25 57.00 169.2 26.4 True x
9/1/2002 08:00    2.95 24 163.00 129.1 57.1 True x
9/5/2002 09:30    2.63 23 71.00 83.5 16.1 True x
9/12/2002 11:30    2.37 22 81.00 54.8 12.0 True x
9/17/2002 13:40    2.29 20 50.00 47.3 6.5 True x
9/17/2002 13:51    2.29  52.00 47.3 6.8 True x
9/20/2002 10:00    2.40 22 41.00 57.7 6.5 True x
9/26/2002 13:30    2.28 18 35.00 46.5 4.4 True x
10/3/2002 13:45    2.20 21 51.00 66.6 9.3 True x
10/11/2002 09:45    2.19 14 38.00 63.1 6.5 True x
10/17/2002 08:45    2.16 41.00 59.6 6.7 True x
10/24/2002 13:40    2.21 35.00 65.4 6.3 True x
11/1/2002 14:15    2.32 23.00 79.4 4.9 True x
11/7/2002 10:00    2.32 9.00 79.4 1.9 True x
11/7/2002 14:11    2.30 44.00 76.8 9.3 True x
11/7/2002 14:21    2.30  33.00 76.8 6.9 True x
11/15/2002 13:00    2.29 33.00 75.4 6.7 True x
11/21/2002 10:30    2.45 48.00 97.9 12.9 True x
11/30/2002 11:15    2.37 55.00 86.2 12.9 True x
12/13/2002 14:00    2.23 89.00 67.9 16.5 True x
12/18/2002 14:15    2.65 80.00 130 28.1 True x
12/19/2002 13:41    3.38 57.00 295 45.6 True x
12/19/2002 13:53    3.40  48.00 300 39.1 True x
12/28/2002 15:20    2.67 47.00 134 17.0 True x
1/2/2003 14:00    2.49 69.00 104 19.5 True x
1/8/2003 10:00    2.34 155.00 82.1 34.6 True x
1/14/2003 12:50    2.10 112.00 52.9 16.1 True x
2/6/2003 12:30    2.30 71.00 76.8 14.9 True x
2/13/2003 13:00    1.97 62.00 40 6.8 True x
2/20/2003 11:00    2.17 38.00 60.7 6.3 True x
3/1/2003 13:30    2.27 9.00 72.9 1.8 True x
3/6/2003 12:00    2.24 23.00 69.1 4.3 True x
3/12/2003 14:00    2.54 17.00 112 5.3 True x
3/18/2003 14:09    3.66 60.00 377 61.4 True x
3/18/2003 14:19    3.65  61.00 374 62.1 True x
3/21/2003 11:32    2.66 10 21.00 132 7.5 True x
3/31/2003 09:00    3.44 43.00 311 36.6 True x
4/3/2003 13:30    2.53 16 58.00 110 17.3 True x
4/10/2003 14:00    2.75 31.00 149 12.6 True x
4/17/2003 18:00    2.70 14 95.00 139 35.8 True x
4/22/2003 14:34    2.64 14 47.00 129 16.5 True x
4/22/2003 14:48    2.64  39.00 129 13.9 True x
4/25/2003 17:30    2.58 15 75.00 118 24.0 True x
5/1/2003 13:40    2.73 18 66.00 145 26.0 True x
5/8/2003 16:30    5.80 16 483.00 1110 1,450.0 True x
5/16/2003 14:20    7.78 15 1,746.00 1900 8,957.0 True x
5/22/2003 10:00    4.98 17 346.00 826 772.2 True x
5/29/2003 09:00    3.97 19 214.00 482 278.7 True x
6/3/2003 13:47    3.54 11 111.00 340 102.4 True x
6/3/2003 13:58    3.54  112.00 340 103.5 True x
6/5/2003 11:30    3.58 18 150.00 353 143.3 True x
6/12/2003 09:15    3.53 21 138.00 337 126.1 True x
6/19/2003 11:15    3.05 25 105.00 211 59.8 True x
6/26/2003 09:30    3.88 25 415.00 450 504.7 True x
7/1/2003 09:20    10.36 24 2,402.00 3140 20,368.8 True x
7/3/2003 14:40    2.97 30 110.00 193 57.5 True x
7/7/2003 15:24    2.72 34 83.00 143 32.3 True x
7/7/2003 15:35    2.72  77.00 143 29.8 True x
7/17/2003 17:40    3.55 29 163.00 343 151.6 True x
7/25/2003 09:10    3.17 24 119.00 240 77.7 True x
7/31/2003 15:14    2.69 28 58.00 138 21.7 True x
8/7/2003 11:00    2.47 27 48.00 101 13.2 True x
8/15/2003 17:00    2.17 28 45.00 60.7 7.4 True x
8/23/2003 13:50    1.87 26 75.00 31.4 6.4 True x
8/29/2003 16:00    1.95 26 102.00 38.2 10.6 True x
9/10/2003 09:30    1.80 23 64.00 26.1 4.5 True x
9/17/2003 10:00    1.87 20 34.00 31.4 3.0 True x
9/24/2003 09:00    1.75 18 25.00 22.6 1.6 True x
10/2/2003 10:15    1.86 10 65.00 30.6 5.4 True x
10/7/2003 13:40    1.11 18 41.00 0.7 0.1 True x
10/7/2003 13:50    1.11  34.00 0.7 0.1 True x
10/10/2003 14:00    1.75 18 72.00 22.6 4.4 True x
10/15/2003 11:30    2.10 13 22.00 52.9 3.2 True x
10/23/2003 09:00    1.86 13 37.00 30.6 3.1 True x
10/30/2003 10:40    1.92 58.00 35.6 5.6 True x
11/5/2003 09:40    4.54 11 1,070.00 679 1,962.9 True x
11/14/2003 12:15    2.17 25.00 60.7 4.2 True x
11/19/2003 13:20    3.45 57.00 314 48.7 True x
11/19/2003 14:26    3.40 12 64.00 300 52.3 True x
11/19/2003 14:38    3.39  63.00 297 50.9 True x
11/26/2003 11:20    2.70 19.00 139 7.4 True x
12/4/2003 13:55    2.44 34.00 96.4 9.0 True x
12/10/2003 08:30    6.03 983.00 1190 3,159.6 True x
12/18/2003 13:00    4.87 79.00 790 168.9 True x
12/23/2003 13:27    4.24 38.00 574 59.0 True x
12/23/2003 13:41    4.25  28.00 577 44.8 True x
12/25/2003 15:10    3.82 97.00 430 113.6 True x
1/2/2004 08:40    3.56 76.00 346 71.4 True x
1/8/2004 09:20    3.35 88.00 286 68.3 True x
1/21/2004 12:00    3.08 53.00 218 31.2 True x
1/27/2004 11:30    3.14 47.00 233 30.1 True x
2/12/2004 13:15    3.27 106.00 265 75.9 True x
2/20/2004 13:15    3.88 97.00 450 117.9 True x
2/26/2004 13:24    4.37 61.00 619 102.0 True x
3/5/2004 09:00    5.47 860.00 991 2,301.7 True x
3/8/2004 13:50    5.88 212.00 1140 653.5 True x
3/8/2004 14:04    5.89  227.00 1140 700.8 True x
3/12/2004 08:40    4.56 160.00 686 298.0 True x
3/18/2004 13:15    4.18 132.00 553 197.4 True x
3/25/2004 12:20    3.77 12 125.00 413 139.5 True x
4/2/2004 08:40    5.03 10 172.00 843 391.9 True x
4/8/2004 17:15    4.17 15 121.00 550 179.9 True x
4/15/2004 17:45    3.60 15 99.00 359 96.3 True x
4/21/2004 15:42    3.65 20 87.00 374 88.3 True x
4/21/2004 15:54    3.63  74.00 368 74.0 True x
4/22/2004 14:00    3.79 15 113.00 420 129.2 True x
4/29/2004 14:00    3.43 18 112.00 309 93.9 True x
5/6/2004 13:40    4.36 19 156.00 616 261.0 True x
5/14/2004 16:22    5.94 18 505.00 1160 1,584.0 True x
5/21/2004 14:15    5.45 22 379.00 984 1,007.4 True x
5/29/2004 08:00    5.64 19 313.00 1050 889.6 True x
6/3/2004 09:00    10.25 18 496.00 3080 4,127.1 True x
6/11/2004 18:30    5.73 24 263.00 1080 767.8 True x
6/16/2004 20:15    5.31 26 215.00 936 544.8 True x
6/17/2004 15:42    5.00 27 253.00 833 570.5 True x
6/17/2004 15:53    5.00  237.00 833 533.9 True x
6/24/2004 08:20    4.10 22 225.00 526 320.7 True x
7/2/2004 07:45    3.35 24 156.00 286 120.5 True x
7/9/2004 10:30    3.23 23 112.00 255 77.3 True x
7/16/2004 17:45    3.23 28 168.00 255 116.0 True x
7/21/2004 12:53    2.83 31 77.00 164 34.4 True x
7/21/2004 13:04    2.83  55.00 164 24.7 True x
7/22/2004 18:00    2.76 28 148.00 151 60.7 True x
7/30/2004 11:30    2.47 25 123.00 101 33.8 True x
8/6/2004 17:40    2.45 26 78.00 97.9 20.7 True x
8/13/2004 12:00    2.08 19 46.00 50.8 6.4 True x
8/20/2004 16:00    2.45 22 50.00 97.9 13.4 True x
8/27/2004 10:20    2.44 23 71.00 96.4 18.7 True x
9/2/2004 13:17    2.15 27 50.00 58.4 8.0 True x
9/2/2004 13:30    2.14  52.00 57.3 8.1 True x
9/3/2004 13:45    2.08 24 40.00 50.8 5.5 True x
9/9/2004 16:30    1.85 22 45.00 29.8 3.6 True x
9/17/2004 14:00    3.45 21 103.00 314 88.0 True x
9/23/2004 18:15    1.88 21 62.00 32.2 5.4 True x
9/30/2004 12:40    1.76 16 82.00 23.3 5.2 True x
10/8/2004 15:00    2.49 17 120.00 144 47.0 True x
10/13/2004 12:50    2.17 16 59.00 79 12.6 True x
10/13/2004 13:04    2.17  57.00 79 12.2 True x
10/14/2004 16:30    2.15 13 50.00 75.8 10.3 True x
10/20/2004 16:30    2.38 11 39.00 118 12.6 True x
10/28/2004 12:40    5.96 13 188.00 1200 611.0 True x
11/5/2004 11:30    8.03 10 245.00 2040 1,351.0 True x
11/11/2004 14:45    5.06 187.00 868 438.7 True x
11/17/2004 13:50    4.38 13 150.00 644 261.0 True x
11/17/2004 14:01    4.39  114.00 647 200.0 True x
11/19/2004 12:55    5.02 12 208.00 855 481.3 True x
11/26/2004 09:15    4.43 143.00 660 256.4 True x
12/2/2004 13:15    7.25 179.00 1710 830.3 True x
12/10/2004 08:40    8.40 298.00 2200 1,770.2 True x
12/16/2004 14:30    9.66 10 177.00 2790 1,335.4 True x
12/22/2004 13:15    5.90 167.00 1180 535.1 True x
12/31/2004 11:40    5.10 165.00 882 394.6 True x
1/9/2005 14:40    6.68 215.00 1480 862.0 True x
1/16/2005 14:00    10.87 -1 361.00 3410 3,328.4 True x
1/21/2005 11:25    6.91 239.00 1570 1,016.8 True x
1/29/2005 11:45    5.27 194.00 943 494.7 True x
2/2/2005 14:12    5.02 60.00 855 140.7 True x
2/2/2005 14:21    5.01  51.00 851 117.2 True x
2/4/2005 11:30    5.00 180.00 848 414.3 True x
2/11/2005 13:40    5.65 156.00 1080 456.1 True x
2/19/2005 14:30    6.65 217.00 1470 862.4 True x
2/25/2005 14:00    5.96 155.00 1200 503.3 True x
3/5/2005 11:30    5.29 152.00 950 390.0 True x
3/10/2005 14:15    4.83 111.00 790 237.9 True x
3/15/2005 09:00    4.55 99.00 698 186.8 True x
3/16/2005 13:54    4.49 112.00 678 205.5 True x
3/16/2005 14:05    4.48  109.00 675 199.8 True x
3/24/2005 10:00    4.96 110.00 834 248.4 True x
4/2/2005 14:00    4.97 12 119.00 837 269.4 True x
4/8/2005 18:30    4.60 16 118.00 714 229.0 True x
4/15/2005 15:30    4.98 16 99.00 841 227.0 True x
4/21/2005 11:45    4.96 17 234.00 834 527.5 True x
4/25/2005 15:33    5.86 15 82.00 1160 257.6 True x
4/25/2005 15:45    5.84  75.00 1160 237.5 True x
4/28/2005 12:50    5.12 12 98.00 889 235.7 True x
5/5/2005 17:00    4.30 16 101.00 619 169.4 True x
5/15/2005 10:15    4.05 16 98.00 544 145.1 True x
5/21/2005 13:15    3.92 20 119.00 507 163.7 True x
5/26/2005 11:00    3.43 21 120.00 376 121.9 True x
6/4/2005 19:30    3.15 26 126.00 305 104.6 True x
6/10/2005 08:00    3.21 27 92.00 320 80.3 True x
6/10/2005 15:08    3.29 32 72.00 340 66.3 True x
6/10/2005 15:17    3.30  69.00 342 64.5 True x
6/17/2005 17:45    2.88 26 150.00 244 99.1 True x
6/24/2005 07:30    2.63 28 156.00 182 76.7 True x
7/1/2005 08:50    2.41 26 41.00 124 13.9 True x
7/7/2005 17:30    2.31 29 23.00 104 6.7 True x
7/16/2005 08:10    1.99 28 25.00 52.6 3.6 True x
7/19/2005 14:16    1.89 30 46.00 40.1 5.0 True x
7/19/2005 14:27    1.88  126.00 38.9 13.3 True x
7/22/2005 19:30    1.78 33 24.00 28.6 1.9 True x
7/29/2005 08:15    1.93 26 28.00 44.8 3.4 True x
8/5/2005 07:00    1.90 27 57.00 41.2 6.4 True x
8/11/2005 15:30    1.56 29 52.00 12.2 1.7 True x
8/18/2005 09:30    1.73 26 47.00 24.1 3.1 True x
8/26/2005 08:40    1.67 22 48.00 19.4 2.5 True x
9/1/2005 08:30    1.55 24 28.00 11.7 0.9 True x
9/8/2005 10:20    1.44 25 63.00 6.8 1.2 True x
9/17/2005 07:30    1.60 18 38.00 14.6 1.5 True x
9/24/2005 09:30    1.59 20 44.00 14 1.7 True x
9/29/2005 07:30    1.68 14 49.00 20.1 2.7 True x
10/6/2005 09:15    1.59 19 46.00 14 1.8 True x
10/11/2005 15:10    1.50 12 68.00 9.2 1.7 True x
10/11/2005 15:23    1.49  65.00 8.7 1.5 True x
10/13/2005 13:30    1.50 17 38.00 9.2 1.0 True x
10/21/2005 09:15    1.45 13 36.00 7.2 0.7 True x
10/29/2005 15:30    1.64 9.00 17.2 0.4 True x
11/6/2005 13:05    1.71 12 43.00 22.5 2.6 True x
11/13/2005 11:00    1.71 11 30.00 22.5 1.8 True x
11/19/2005 12:30    1.74 141.00 25 9.6 True x
11/23/2005 13:40    1.72 153.00 23.3 9.6 True x
11/23/2005 13:53    1.71  174.00 22.5 10.6 True x
11/24/2005 16:20    1.68 80.00 20.1 4.4 True x
12/1/2005 14:20    1.99 78.00 52.6 11.1 True x
12/15/2005 16:15    1.90 100.00 41.2 11.2 True x
12/28/2005 11:25    1.95 73.00 47.4 9.4 True x
1/4/2006 13:56    2.44 42.00 131 15.0 True x
1/11/2006 13:31    1.89 8.00 40.1 0.9 True x
1/11/2006 13:42    1.90  21.00 41.2 2.4 True x
1/12/2006 08:40    1.93 32.00 44.8 3.9 True x
1/17/2006 11:40    1.87 54.00 37.8 5.6 True x
1/25/2006 15:00    1.97 36.00 49.9 4.9 True x
2/2/2006 11:00    2.66 19.00 191 10.2 True x
2/10/2006 16:30    2.15 51.00 75.8 10.4 True x
2/15/2006 10:35    2.06 59.00 62.2 10.0 True x
2/15/2006 14:12    2.05 38.00 60.8 6.2 True x
2/15/2006 14:23    2.04  40.00 59.4 6.5 True x
2/22/2006 16:15    2.04 70.00 59.4 11.3 True x
3/2/2006 08:00    2.00 51.00 54 7.6 True x
3/9/2006 08:15    2.40 43.00 122 14.5 True x
3/16/2006 15:30    3.52 47.00 399 51.4 True x
3/23/2006 08:40    2.68 17.00 197 9.4 True x
3/23/2006 14:48    2.67 10.00 194 5.3 True x
3/23/2006 14:59    2.68  12.00 197 6.7 True x
3/30/2006 18:00    2.65 10 91.00 188 46.2 True x
4/6/2006 17:30    5.93 12 217.00 1190 698.2 True x
4/14/2006 07:44    4.62 18 453.00 720 881.8 True x
4/20/2006 07:30    5.91 14 263.00 1180 838.6 True x
4/28/2006 08:30    3.99 14 173.00 527 246.2 True x
5/4/2006 13:00    6.17 17 285.00 1280 987.8 True x
5/8/2006 14:24    4.82 18 227.00 786 483.6 True x
5/8/2006 14:36    4.82  194.00 786 413.3 True x
5/11/2006 08:20    4.48 15 218.00 675 398.5 True x
5/18/2006 10:55    4.78 16 192.00 773 402.4 True x
5/25/2006 15:00    3.79 22 191.00 471 244.0 True x
6/1/2006 15:10    3.37 25 160.00 360 156.0 True x
6/10/2006 10:40    2.90 20 183.00 248 123.2 True x
6/16/2006 17:40    2.78 29 105.00 222 63.1 True x
6/19/2006 15:17    2.63 30 107.00 182 52.9 True x
6/19/2006 15:28    2.63  109.00 182 54.0 True x
6/22/2006 08:50    2.58 25 138.00 167 62.4 True x
6/28/2006 20:00    3.18 26 183.00 312 154.2 True x
7/7/2006 16:10    2.25 28 160.00 92.7 40.1 True x
7/15/2006 10:50    2.16 29 51.00 77.4 10.7 True x
7/23/2006 10:00    2.26 25 37.00 94.5 9.6 True x
7/27/2006 12:30    2.01 30 40.00 55.3 6.0 True x
8/3/2006 15:30    1.72 30 41.00 23.3 2.6 True x
8/9/2006 14:11    1.95 26 76.00 47.4 9.8 True x
8/9/2006 14:22    1.95  70.00 47.4 9.0 True x
8/11/2006 10:00    2.07 25 70.00 63.6 12.0 True x
8/18/2006 18:25    1.61 27 64.00 15.2 2.6 True x
8/24/2006 08:30    1.60 26 76.00 14.6 3.0 True x
9/2/2006 18:10    2.03 26 55.00 58 8.7 True x
9/7/2006 14:53    1.76 25 61.00 26.7 4.5 True x
9/7/2006 15:04    1.76  80.00 26.7 5.8 True x
9/8/2006 17:35    1.71 25 60.00 22.5 3.7 True x
9/16/2006 11:45    2.08 21 201.00 65.1 35.4 True x
9/22/2006 08:15    1.68 16 105.00 20.1 5.7 True x
9/30/2006 13:45    1.53 16 105.00 10.6 3.0 True x
10/7/2006 18:30    1.62 12 53.00 15.9 2.3 True x
10/14/2006 07:30    1.58 46.00 13.4 1.7 True x
10/18/2006 15:03    1.78 13 80.00 28.6 6.2 True x
10/18/2006 15:13    1.77  74.00 27.7 5.5 True x
10/23/2006 09:00    1.92 61.00 43.6 7.3 True x
10/28/2006 16:15    1.95 39.00 47.4 5.0 True x
11/2/2006 16:00    1.92 98.00 43.6 11.6 True x
11/9/2006 07:30    1.94 93.00 46.1 11.6 True x
11/18/2006 13:30    2.22 96.00 87.4 22.8 True x
11/24/2006 10:00    2.14 81.00 74.2 16.2 True x
12/11/2006 16:00    4.86 -1 127.00 800 275.7 True x
12/18/2006 08:20    5.33 180.00 965 469.8 True x
12/23/2006 10:45    7.76 455.00 1920 2,361.2 True x
12/30/2006 14:00    4.45 130.00 666 234.5 True x
1/6/2007 14:00    8.26 490.00 2140 2,835.0 True x
1/9/2007 14:19    5.72 160.00 1110 481.5 True x
1/9/2007 14:35    5.72  135.00 1110 406.1 True x
1/11/2007 13:40    5.00 110.00 848 254.0 True x
1/18/2007 14:00    5.18 -1 105.00 911 259.5 True x
1/25/2007 13:40    4.18 -1 132.00 583 208.7 True x
2/1/2007 11:30    5.64 -1 126.00 1080 369.5 True x
2/25/2007 11:10    11.93 -1 607.00 3990 6,544.4 True x
3/1/2007 12:20    9.25 908.00 2590 6,353.5 True x
3/9/2007 12:40    4.87 164.00 803 356.7 True x
3/13/2007 08:00    5.53 183.00 1040 514.9 True x
3/13/2007 13:45    5.54  219.00 1040 616.0 True x
3/13/2007 13:57    5.54  210.00 1040 590.6 True x
3/22/2007 18:00    7.25 13 392.00 1710 1,810.0 True x
3/31/2007 13:15    12.89 13 585.00 4540 7,179.0 True x
4/5/2007 15:30    7.37 195.00 1760 928.1 True x
4/10/2007 13:49    5.89 165.00 1180 527.3 True x
4/12/2007 13:30    7.06 144.00 1630 637.2 True x
4/19/2007 12:30    5.42 12 153.00 998 414.7 True x
4/26/2007 17:00    13.56 11 1,436.00 4950 19,203.2 True x
5/3/2007 14:15    7.00 16 275.00 1600 1,191.6 True x
5/11/2007 17:10    5.19 23 242.00 914 598.1 True x
5/17/2007 18:45    4.43 18 165.00 660 294.4 True x
5/23/2007 14:43    3.96 25 138.00 519 193.9 True x
5/23/2007 14:53    3.94  109.00 513 151.5 True x
5/24/2007 17:00    3.83 24 155.00 482 202.2 True x
6/1/2007 14:50    5.00 24 259.00 848 594.9 True x
6/8/2007 12:30    4.02 25 150.00 536 217.7 True x
6/14/2007 16:50    3.43 29 130.00 376 132.9 True x
6/22/2007 10:00    3.27 29 138.00 335 125.6 True x
6/25/2007 16:15    5.24 25 213.00 932 538.3 True x
6/26/2007 14:50    4.02  139.00 536 201.3 True x
6/26/2007 15:02    4.00  144.00 530 206.1 True x
7/5/2007 17:35    3.78 30 264.00 468 333.9 True x
7/12/2007 10:00    2.94 26 264.00 257 183.5 True x
7/20/2007 19:45    4.09 25 171.00 556 257.4 True x
7/27/2007 16:15    2.60 28 82.00 173 38.3 True x
8/3/2007 15:00    2.28 31 116.00 98.2 30.9 True x
8/7/2007 12:52    2.16  56.00 77.4 11.9 True x
8/7/2007 13:01    2.16  53.00 77.4 11.1 True x
8/10/2007 11:45    2.68 29 86.00 197 46.0 True x
8/17/2007 15:25    2.11 28 82.00 69.5 15.6 True x
8/23/2007 12:20    2.93 27 148.00 255 102.6 True x
8/30/2007 12:45    3.50 25 233.00 394 248.7 True x
9/6/2007 16:30    2.50 27 108.00 146 42.6 True x
9/13/2007 11:00    2.21 19 123.00 85.7 28.6 True x
9/19/2007 15:15    2.03  22.00 58 3.5 True x
9/20/2007 12:45    2.03 24 108.00 58 17.0 True x
9/27/2007 16:40    1.91 21 78.00 42.4 9.0 True x
10/4/2007 10:15    2.06 19 45.00 62 7.6 True x
10/11/2007 13:45    1.94 14 58.00 46 7.2 True x
10/19/2007 10:20    2.02 15 105.00 57 16.3 True x
10/26/2007 07:30    1.88 11 134.00 39 14.2 True x
10/30/2007 12:15    1.95 10 128.00 47 16.3 True x
10/31/2007 14:02    1.94 14 148.00 46 18.4 True x
10/31/2007 14:14    1.93  128.00 45 15.7 True x
11/8/2007 13:00    1.92 107.00 44 12.7 True x
11/15/2007 12:20    1.97 109.00 50 14.7 True x
11/24/2007 15:50    2.43 128.00 129 44.9 True x
11/29/2007 13:40    2.10 98.00 68 18.1 True x
12/6/2007 09:30    2.30 -1 140.00 102 38.6 True x
12/13/2007 12:30    2.68 -1 22.00 197 12.0 True x
12/20/2007 12:30    2.63 -1 95.00 182 47.0 True x
12/27/2007 14:43    3.93 122.00 510 168.7 True x
12/27/2007 14:54    3.92  118.00 507 162.0 True x
12/28/2007 11:00    3.68 -1 22.00 441 26.4 True x
1/4/2008 12:51    2.75 121.00 215 70.7 True x
1/11/2008 13:00    6.48 249.00 1400 942.5 True x
1/16/2008 10:00    4.38 123.00 644 213.9 True x
1/28/2008 09:00    4.34 -1 132.00 632 226.7 True x
2/2/2008 15:00    3.89 128.00 499 172.7 True x
2/7/2008 12:20    10.55 174.00 3240 1,525.7 True x
2/14/2008 12:50    5.45 25.00 1010 69.5 True x
2/23/2008 16:02    7.61 -1 80.00 1860 402.1 True x
2/28/2008 13:15    5.13 -1 83.00 893 202.2 True x
3/6/2008 09:40    7.15 350.00 1670 1,582.5 True x
3/6/2008 15:02    6.84  340.00 1540 1,414.0 True x
3/6/2008 15:15    6.84  240.00 1540 998.0 True x
3/13/2008 14:00    4.48 148.00 675 271.1 True x
3/20/2008 16:00    5.59 199.00 1060 571.1 True x
3/27/2008 09:30    4.37 143.00 641 248.7 True x
4/3/2008 09:45    4.46 123.00 669 222.3 True x
4/9/2008 14:36    6.99  394.00 1600 1,702.5 True x
4/9/2008 14:55    7.00  389.00 1600 1,681.0 True x
4/10/2008 14:00    8.11 607.00 2070 3,393.9 True x
4/17/2008 09:15    6.39 11 233.00 1370 863.7 True x
4/25/2008 10:00    6.58 16 210.00 1440 816.9 True x
5/1/2008 09:30    5.29 13 161.00 950 413.9 True x
5/8/2008 13:50    4.51 17 187.00 685 347.2 True x
5/16/2008 18:15    6.75 14 236.00 1510 962.4 True x
5/20/2008 08:20    5.64 14 203.00 1080 592.1 True x
5/20/2008 13:01    5.64 11 158.00 1080 462.4 True x
5/20/2008 13:12    5.64  181.00 1080 529.7 True x
5/27/2008 13:40    5.73 17 264.00 1110 793.6 True x
6/5/2008 18:40    8.12 23 373.00 2080 2,097.1 True x
6/11/2008 17:15    5.67 23 244.00 1090 719.8 True x
6/19/2008 18:50    5.90 23 269.00 1180 858.0 True x
6/26/2008 15:50    5.66 24 351.00 1090 1,035.2 True x
7/6/2008 18:20    3.82 26 239.00 479 309.2 True x
7/10/2008 16:15    4.13 28 185.00 568 285.1 True x
7/17/2008 11:15    3.46 29 158.00 383 164.1 True x
7/17/2008 13:06    3.41 30 166.00 370 166.3 True x
7/17/2008 13:16    3.41  130.00 370 129.9 True x
7/25/2008 16:20    3.04 26 102.00 279 77.5 True x
7/31/2008 13:50    2.92 28 77.00 252 52.6 True x
8/7/2008 15:20    2.60 29 33.00 173 15.4 True x
8/11/2008 13:49    2.27 27 26.00 96 6.9 True x
8/11/2008 13:59    2.27  28.00 96 7.3 True x
8/14/2008 15:27    2.15 29 46.00 76 9.5 True x
8/22/2008 10:45    1.93 25 20.00 45 2.5 True x
8/29/2008 14:00    1.95 26 29.00 47 3.7 True x
9/5/2008 11:07    3.43 19 371.00 376 377.1 True x
9/11/2008 13:15    2.67 19 81.00 194 42.9 True x
9/17/2008 11:25    12.54 18 307.00 4340 3,604.1 True x
9/23/2008 14:37    5.03 23 137.00 858 317.5 True x
9/23/2008 14:49    5.03  127.00 858 295.6 True x
9/26/2008 09:30    4.85 20 365.00 796 786.6 True x
10/3/2008 09:15    3.87 14 196.00 493 261.9 True x
10/10/2008 10:30    3.79 15 152.00 471 193.8 True x
10/19/2008 15:00    3.48 12 135.00 389 142.4 True x
10/24/2008 14:30    3.49 141.00 391 149.4 True x
10/30/2008 10:30    3.57 141.00 412 157.7 True x
11/6/2008 08:20    3.41 12 134.00 370 134.3 True x
11/7/2008 13:19    3.47 11 15.00 386 16.6 True x
11/7/2008 13:31    3.46  18.00 383 18.9 True x
11/13/2008 16:00    3.47 131.00 386 137.0 True x
11/20/2008 11:30    3.43 128.00 376 130.9 True x
11/27/2008 15:30    3.23 97.00 325 85.9 True x
12/7/2008 11:15    2.53 -3 114.00 154 47.6 True x
12/11/2008 16:00    5.63 -2 182.00 1080 533.6 True x
12/18/2008 14:30    6.59 -2 33.00 1440 132.0 True x
12/28/2008 09:40    18.53 -2 716.00 8270 15,999.0 True x
1/6/2009 12:30    6.43 -2 210.00 1380 784.2 True x
2/10/2009 14:45    5.92 335.00 1190 1,078.0 True x
2/10/2009 14:56    5.93  331.00 1190 1,066.2 True x
2/12/2009 13:00    10.40 1,942.00 3160 16,577.1 True x
2/20/2009 12:40    5.03 192.00 858 446.8 True x
2/27/2009 11:15    16.08 6,602.00 6570 117,121.9 True x
3/5/2009 11:15    6.04 266.00 1230 883.5 True x
3/12/2009 10:30    20.05 346.00 9380 8,774.2 True x
3/12/2009 14:25    19.65 315.00 9080 7,725.2 True x
3/12/2009 14:56    19.62  353.00 9060 8,652.8 True x
3/19/2009 12:40    7.93 247.00 1990 1,331.7 True x
3/27/2009 11:30    9.92 376.00 2910 2,954.5 True x
4/3/2009 11:00    9.32 226.00 2620 1,602.6 True x
4/10/2009 14:10    6.85 174.00 1540 726.3 True x
4/16/2009 09:21    8.50 190.00 2240 1,151.7 True x
4/23/2009 11:00    10.31 218.00 3110 1,835.2 True x
4/23/2009 13:58    10.11 13 201.00 3010 1,639.7 True x
4/23/2009 14:14    10.10  194.00 3000 1,578.8 True x
5/2/2009 11:45    17.39 12 294.00 7470 5,931.5 True x
5/10/2009 19:40    8.97 12 382.00 2460 2,537.6 True x
5/14/2009 15:50    14.78 14 1,737.00 5710 26,794.1 True x
5/22/2009 12:00    10.24 17 193.00 3070 1,599.8 True x
5/28/2009 08:15    8.71 14 355.00 2340 2,245.1 True x
6/4/2009 11:55    7.11 17 173.00 1650 773.8 True x
6/4/2009 14:52    7.05 21 154.00 1620 677.4 True x
6/4/2009 15:04    7.05  134.00 1620 589.3 True x
6/11/2009 18:40    6.14 19 210.00 1270 722.0 True x
6/18/2009 18:45    12.90 21 4,808.00 4550 59,069.0 True x
6/26/2009 07:00    7.59 23 265.00 1850 1,324.1 True x
7/2/2009 15:15    6.73 20 231.00 1500 935.7 True x
7/10/2009 14:10    10.34 19 752.00 3130 6,361.7 True x
7/14/2009 13:19    7.16 23 226.00 1670 1,019.3 True x
7/14/2009 13:32    7.16  241.00 1670 1,087.6 True x
7/16/2009 15:30    8.26 23 223.00 2140 1,290.9 True x
7/24/2009 08:50    6.03 21 220.00 1230 732.4 True x
8/2/2009 17:15    5.04 22 216.00 861 503.2 True x
8/5/2009 15:21    4.90  195.00 813 428.7 True x
8/5/2009 15:31    4.90  196.00 813 432.3 True x
8/6/2009 16:00    4.58 24 204.00 707 390.4 True x
8/13/2009 14:45    4.21 26 157.00 592 251.0 True x
8/21/2009 08:55    6.02 21 271.00 1230 902.7 True x
8/27/2009 13:20    3.88 23 137.00 496 184.7 True x
9/4/2009 11:00    3.56 20 122.00 410 135.5 True x
9/10/2009 18:50    3.25 23 109.00 330 97.6 True x
9/18/2009 15:00    2.89 21 127.00 246 84.4 True x
9/25/2009 12:20    3.20 20 142.00 317 121.6 True x
9/28/2009 14:00    3.51 17 157.00 397 169.1 True x
9/28/2009 14:12    3.50  154.00 394 164.0 True x
10/2/2009 10:20    3.14 12 152.00 303 124.8 False x
10/8/2009 13:10    3.17 12 150.00 310 126.2 False x
10/15/2009 11:00    3.41 159.00 370 159.2 False x
10/19/2009 09:40    3.28 141.00 337 128.5 False x
11/1/2009 14:10    14.84 10 356.00 5750 5,529.2 False x
11/5/2009 09:00    7.80 231.00 1940 1,214.4 False x
11/14/2009 12:30    5.65 156.00 1080 455.5 False x
11/19/2009 08:25    8.81 185.00 2390 1,194.9 False x
11/19/2009 14:37    8.62 155.00 2300 966.2 False x
11/19/2009 14:52    8.62  174.00 2300 1,086.3 False x
11/27/2009 15:15    8.13 194.00 2080 1,094.9 False x
12/3/2009 14:00    6.21 157.00 1300 551.2 False x
12/10/2009 12:50    6.30 -2 150.00 1330 542.0 False x
12/18/2009 16:00    5.63 -1 168.00 1080 492.3 False x
12/25/2009 12:40    17.59 1,191.00 7610 24,485.7 False x
1/8/2010 13:20    10.05 -2 146.00 2980 1,178.7 False x
1/24/2010 12:40    16.74 -1 2,715.00 7020 51,469.8 False x
2/1/2010 11:30    7.38 -2 230.00 1760 1,094.7 False x
2/4/2010 13:14    6.29 190.00 1330 683.8 False x
2/4/2010 13:30    6.29 197.00 1330 710.2 False x
2/7/2010 14:15    5.85 196.00 1160 614.7 False x
2/12/2010 12:00    5.31 -1 194.00 957 501.6 False x
2/20/2010 12:00    4.89 170.00 810 372.7 False x
2/26/2010 16:00    4.58 -1 169.00 707 323.7 False x
3/5/2010 11:15    6.17 165.00 1280 573.5 False x
3/8/2010 12:10    10.82 870.00 3380 7,944.7 False x
3/15/2010 08:45    17.00 685.00 7200 13,331.9 False x
3/15/2010 13:57    16.76 4,786.00 7030 90,860.5 False x
3/15/2010 14:18    16.73  512.00 7010 9,702.8 False x
3/25/2010 16:00    8.65 299.00 2310 1,865.6 False x
4/1/2010 18:10    6.80 13 212.00 1520 872.6 False x
4/9/2010 13:00    7.16 10 153.00 1670 692.9 False x
4/15/2010 09:15    5.77 15 192.00 1130 587.8 False x
4/22/2010 12:15    5.07 13 153.00 872 362.3 False x
4/26/2010 13:55    14.11 14 2,412.00 5290 34,460.1 False x
4/26/2010 14:11    14.10  1,412.00 5280 20,142.9 False x
4/29/2010 14:10    8.09 13 314.00 2060 1,747.5 False x
5/6/2010 11:30    5.79 15 208.00 1140 641.4 False x
5/14/2010 17:10    22.03 14 487.00 11200 14,756.2 False x
5/21/2010 13:25    10.23 13 249.00 3070 2,072.2 False x
5/26/2010 11:00    10.35 20 642.00 3130 5,432.7 False x
6/3/2010 13:15    17.09 19 1,088.00 7260 21,333.4 False x
6/9/2010 07:00    10.21 17 291.00 3060 2,410.5 False x
6/17/2010 15:00    14.10 21 479.00 5280 6,828.9 False x
6/24/2010 10:20    18.09 22 861.00 7960 18,515.2 False x
7/2/2010 16:30    7.56 23 258.00 1840 1,281.9 False x
7/9/2010 12:45    8.56 24 382.00 2270 2,343.9 False x
7/16/2010 12:00    5.47 27 179.00 1020 495.3 False x
7/22/2010 10:00    6.06 25 182.00 1240 610.4 False x
8/1/2010 16:40    4.32 28 131.00 625 221.8 False x
8/6/2010 16:30    3.89 28 69.00 499 93.4 False x
8/12/2010 16:00    5.70 30 337.00 1100 1,002.4 False x
8/19/2010 15:20    3.76 27 155.00 463 194.3 False x
8/26/2010 17:15    3.56 27 137.00 410 152.4 False x
9/2/2010 14:00    3.87 26 141.00 493 188.5 False x
9/9/2010 17:45    3.40 22 146.00 368 145.7 False x
9/17/2010 15:10    2.99 21 135.00 268 97.9 False x
9/23/2010 12:30    3.89 22 119.00 499 161.5 False x
10/1/2010 14:30    3.34 17 153.00 352 146.3 False x
10/8/2010 16:15    3.10 15 145.00 293 115.3 False x
10/13/2010 14:50    2.99 18 73.00 268 53.4 False x
10/13/2010 15:01    2.99  76.00 268 55.6 False x
10/15/2010 12:15    2.95 13 115.00 259 80.6 False x
10/24/2010 16:00    3.14 14 131.00 303 107.6 False x
10/31/2010 15:00    3.64 87.00 431 101.3 False x
11/7/2010 01:00    3.30 129.00 342 119.5 False x
11/14/2010 11:00    3.18 91.00 312 76.9 False x
11/21/2010 15:00    3.25 85.00 330 76.2 False x
11/26/2010 13:00    3.55 105.00 407 116.1 False x
11/30/2010 13:41    3.49 101.00 391 107.1 False x
11/30/2010 13:52    3.49 93.00 391 98.3 False x
12/16/2010 11:25    3.37 -1 105.00 360 102.7 False x
12/23/2010 14:15    3.40 -1 111.00 368 110.8 False x
12/30/2010 11:40    3.36 -2 92.00 357 89.1 False x
1/4/2011 10:10    7.04 -3 331.00 1620 1,448.2 False x
1/6/2011 14:04    5.94 220.00 1200 716.0 False x
1/6/2011 14:16    5.95  203.00 1200 659.0 False x
1/17/2011 11:10    6.20 -3 103.00 1290 360.1 False x
2/19/2011 10:00    15.02 1,013.00 5910 16,180.0 False x
2/22/2011 13:30    14.06 736.00 5320 10,582.3 False x
2/22/2011 13:52    14.02  755.00 5290 10,786.8 False x
2/26/2011 12:15    7.49 -1 235.00 1890 1,203.0 False x
3/4/2011 11:45    7.59 222.00 1930 1,161.5 False x
3/10/2011 10:45    7.32 233.00 1820 1,145.9 False x
3/20/2011 17:15    5.13 267.00 940 679.6 False x
3/25/2011 12:00    4.93 122.00 859 283.5 False x
3/28/2011 14:04    4.58 74.00 724 146.5 False x
3/28/2011 14:16    4.58  71.00 724 140.4 False x
3/31/2011 12:50    4.43 84.00 669 153.1 False x
4/7/2011 11:00    4.09 69.00 553 104.1 False x
4/14/2011 11:40    4.28 13 130.00 617 217.1 False x
4/22/2011 15:20    14.46 1,034.00 5560 15,522.7 False x
4/29/2011 12:10    10.07 329.00 3100 2,758.1 False x
5/6/2011 12:40    6.54 10 203.00 1500 825.5 False x
5/10/2011 08:50    5.76 16 197.00 1200 641.4 False x
5/10/2011 13:18    5.77 22 171.00 1200 554.7 False x
5/10/2011 13:30    5.76  208.00 1200 675.1 False x
5/19/2011 12:40    7.13 12 263.00 1740 1,238.7 False x
5/26/2011 16:00    18.24 12 1,639.00 8020 35,493.0 False x
6/3/2011 10:30    12.61 15 906.00 4470 10,940.7 False x
6/12/2011 06:40    7.15 16 235.00 1750 1,112.2 False x
6/17/2011 14:15    9.73 18 378.00 2930 2,993.4 False x
6/24/2011 18:30    7.67 17 255.00 1970 1,360.2 False x
6/28/2011 15:27    12.55 24 224.00 4430 2,688.7 False x
6/28/2011 15:53    12.53  228.00 4420 2,726.9 False x
7/9/2011 09:30    5.00 24 194.00 887 465.1 False x
7/14/2011 09:15    4.26 25 174.00 610 286.9 False x
7/22/2011 07:50    3.40 31 139.00 348 131.5 False x
7/29/2011 11:50    4.11 30 89.00 560 135.1 False x
8/4/2011 12:35    2.91 30 31.00 229 19.5 False x
8/4/2011 12:47    2.91  31.00 229 19.6 False x
8/4/2011 14:10    2.91 32 34.00 229 21.2 False x
8/12/2011 13:30    2.63 25 60.00 172 28.0 False x
8/18/2011 12:50    2.33 26 67.00 118 21.7 False x
8/25/2011 17:20    3.15 28 93.00 285 72.0 False x
9/1/2011 17:30    2.12 30 35.00 86 8.3 False x
9/8/2011 12:40    2.00 20 36.00 70 7.0 False x
9/12/2011 13:40    2.04 25 86.00 75 17.5 False x
9/12/2011 13:51    2.02  87.00 73 17.3 False x
9/15/2011 12:25    1.92 16 118.00 60 19.2 False x
9/23/2011 12:55    1.93 16 138.00 62 23.1 False x
10/7/2011 12:40    1.99 18 85.00 69 16.0 False x
10/13/2011 16:30    2.05 18 85.00 77 17.9 False x
10/21/2011 15:30    1.97 114.00 66 20.4 False x
10/25/2011 13:36    2.99 15 170.00 247 113.5 False x
10/25/2011 13:48    2.99  163.00 247 108.9 False x
10/27/2011 16:15    2.01 11 147.00 72 28.7 False x
11/3/2011 17:10    2.39 66.00 128 23.0 False x
11/10/2011 11:00    6.53 729.00 1490 2,936.7 False x
11/17/2011 12:10    2.98 144.00 245 95.6 False x
11/26/2011 12:00    4.12 194.00 563 296.0 False x
12/4/2011 09:30    3.38 136.00 343 126.5 False x
12/7/2011 15:06    3.40 120.00 348 112.8 False x
12/7/2011 15:22    3.43  116.00 356 112.1 False x
12/11/2011 11:15    2.98 100.00 245 66.4 False x
12/15/2011 11:10    13.33 1,765.00 4880 23,265.1 False x
12/23/2011 11:15    5.12 160.00 936 406.2 False x
12/29/2011 12:45    4.19 124.00 586 197.3 False x
1/5/2012 12:50    3.90 161.00 492 214.1 False x
1/10/2012 10:45    3.55 141.00 389 148.6 False x
1/19/2012 16:00    3.53 -1 104.00 384 108.7 False x
1/24/2012 10:10    3.84 106.00 474 136.3 False x
1/24/2012 10:33    3.85  129.00 477 167.0 False x
1/27/2012 11:30    3.50 113.00 375 115.2 False x
2/2/2012 12:00    3.51 105.00 378 108.1 False x
2/9/2012 10:50    3.35 102.00 335 92.8 False x
2/16/2012 12:40    3.52 113.00 381 116.7 False x
2/27/2012 16:10    3.63 88.00 412 98.1 False x
3/3/2012 09:45    4.42 129.00 666 232.5 False x
3/8/2012 12:45    4.10 130.00 556 196.6 False x
3/16/2012 10:00    3.89 16 132.00 489 174.7 False x
3/23/2012 18:50    3.73 19 129.00 441 154.4 False x
3/28/2012 11:45    3.50 17 43.00 375 43.8 False x
3/28/2012 13:07    3.51 17 43.00 378 44.2 False x
3/28/2012 13:18    3.51 17 37.00 378 38.0 False x
3/28/2012 14:30    3.51 17 47.00 378 48.1 False x
3/29/2012 12:40    3.48 15 133.00 370 133.7 False x
4/6/2012 10:00    3.45 13 108.00 362 105.7 False x
4/13/2012 16:30    3.18 12 93.00 292 73.9 False x
4/19/2012 16:40    3.33 19 114.00 330 101.7 False x
4/26/2012 16:20    3.17 19 110.00 290 86.8 False x
5/4/2012 10:30    6.86 18 4,241.00 1630 18,667.5 False x
5/12/2012 07:00    6.87 17 255.00 1630 1,125.8 False x
5/18/2012 20:15    5.09 22 166.00 924 415.0 False x
5/22/2012 06:40    4.48 20 118.00 687 219.7 False x
5/22/2012 11:44    4.45 21 123.00 677 226.0 False x
5/22/2012 14:00    4.45 22 122.00 677 223.4 False x
5/31/2012 08:45    3.90 16 166.00 492 220.9 False x
6/8/2012 09:10    3.37 22 157.00 340 144.3 False x
6/14/2012 16:00    3.00 26 135.00 250 91.8 False x
6/21/2012 15:20    3.00 29 175.00 250 118.3 False x
6/28/2012 18:40    2.59 31 283.00 164 125.5 False x
7/4/2012 09:50    2.52 31 27.00 151 11.0 False x
7/12/2012 15:40    2.00 30 41.00 70 7.9 False x
7/19/2012 09:10    1.89 31 23.00 57 3.5 False x
7/26/2012 09:20    1.68 30 29.00 35 2.8 False x
8/2/2012 11:15    1.56 30 34.00 24 2.2 False x
8/9/2012 10:00    1.47 26 62.00 18 3.0 False x
8/16/2012 10:15    1.50 25 91.00 20 5.0 False x
8/23/2012 16:50    1.37 27 63.00 11 1.9 False x
8/27/2012 09:48    1.91 24 61.00 59 9.8 False x
8/27/2012 11:00    1.93 24 66.00 62 11.2 False x
8/31/2012 10:30    1.78 27 26.00 45 3.2 False x
9/6/2012 17:10    1.95 28 41.00 64 7.2 False x
9/14/2012 10:00    1.65 19 66.00 32 5.7 False x
9/20/2012 09:50    1.50 18 67.00 20 3.6 False x
9/27/2012 10:20    1.42 19 78.00 14 3.0 False x
10/5/2012 13:00    1.48 13 90.00 18 4.4 False x
10/12/2012 10:45    1.48 11 109.00 18 5.3 False x
10/19/2012 13:45    2.25 10 130.00 106 37.3 False x
10/25/2012 10:00    2.25 18 123.00 106 35.2 False x
11/1/2012 10:00    1.92 125.00 60 20.4 False x
11/8/2012 13:00    1.91 129.00 59 20.6 False x
11/15/2012 10:20    2.09 113.00 82 25.2 False x
11/16/2012 15:06    2.10 89.00 84 20.2 False x
11/16/2012 16:12    2.10 100.00 84 22.8 False x
11/22/2012 15:40    1.95 110.00 64 19.1 False x
11/29/2012 10:20    1.87 104.00 54 15.2 False x
12/6/2012 16:00    1.86 103.00 53 14.9 False x
12/13/2012 13:25    1.90 106.00 58 16.7 False x
12/20/2012 10:00    2.08 114.00 81 25.0 False x
12/27/2012 12:30    2.35 -1 102.00 122 33.7 False x
1/3/2013 11:30    2.05 -1 130.00 77 27.2 False x
1/24/2013 12:20    2.74 -1 224.00 193 117.2 False x
1/31/2013 09:15    5.90 435.00 1250 1,468.5 False x
2/6/2013 13:15    4.40 197.00 659 351.3 False x
2/14/2013 10:20    5.26 142.00 995 383.9 False x
2/20/2013 12:45    4.26 -3 215.00 610 354.5 False x
2/28/2013 13:00    8.85 3,847.00 2500 25,971.0 False x
3/7/2013 12:40    3.31 140.00 325 122.9 False x
3/14/2013 17:00    14.04 681.00 5310 9,773.1 False x
3/22/2013 12:30    5.50 203.00 1100 603.6 False x
3/29/2013 09:15    5.07 192.00 915 476.3 False x
4/4/2013 14:00    4.46 137.00 680 252.6 False x
4/16/2013 10:24    7.63 227.00 1950 1,199.6 False x
4/16/2013 12:46    7.58 211.00 1930 1,104.0 False x
4/18/2013 12:45    23.95 11 2,657.00 23300 167,166.9 False x
4/25/2013 13:30    10.68 10 250.00 3520 2,382.2 False x
5/3/2013 13:30    7.28 14 216.00 1830 1,069.7 False x
5/10/2013 10:15    7.98 16 217.00 2140 1,254.0 False x
5/16/2013 08:35    6.65 18 187.00 1550 784.5 False x
5/24/2013 11:30    7.09 17 272.00 1740 1,279.0 False x
5/30/2013 08:00    23.47 21 719.00 21600 41,945.3 False x
6/7/2013 08:30    8.85 17 231.00 2560 1,599.6 False x
6/13/2013 12:00    6.96 23 265.00 1690 1,213.3 False x
6/21/2013 06:45    6.20 24 207.00 1370 768.2 False x
6/28/2013 11:40    15.27 24 1,495.00 6360 25,677.2 False x
7/5/2013 15:10    6.08 25 225.00 1320 804.9 False x
7/11/2013 07:10    5.54 25 246.00 1110 737.8 False x
7/18/2013 09:00    4.44 29 203.00 673 368.9 False x
7/25/2013 11:15    3.92 26 155.00 499 208.9 False x
8/1/2013 08:20    3.85 22 225.00 477 290.2 False x
8/8/2013 08:22    3.27 16 205.00 315 174.4 False x
8/8/2013 09:20    3.27 16 172.00 315 146.6 False x
8/15/2013 16:45    2.77 23 20.00 200 11.1 False x
8/22/2013 09:20    2.45 26 93.00 139 35.2 False x
8/29/2013 09:30    2.25 29 93.00 106 26.7 False x
9/5/2013 09:10    2.08 24 117.00 81 25.7 False x
9/9/2013 09:52    3.45 25 483.00 362 472.7 False x
9/9/2013 10:47    3.30 25 394.00 322 343.0 False x
9/12/2013 16:30    2.10 27 68.00 84 15.6 False x
9/19/2013 10:00    2.02 23 121.00 73 23.9 False x
9/26/2013 13:00    1.97 21 113.00 66 20.3 False x
10/3/2013 09:50    1.94 22 103.00 63 17.7 False x
10/10/2013 09:45    1.99 16 126.00 69 23.5 False x
10/18/2013 12:30    1.91 12 127.00 59 20.3 False x
10/24/2013 12:45    1.98 130.00 68 24.0 False x
10/31/2013 10:00    2.32 12 108.00 117 34.1 False x
11/7/2013 10:00    2.53 16.00 153 6.6 False x
11/14/2013 10:00    2.27 65.00 109 19.3 False x
11/21/2013 13:40    2.47 128.00 142 49.1 False x
12/3/2013 10:00    2.25 150.00 106 43.0 False x
2/21/2014 16:15    20.65 165.00 13700 6,137.1 False x
2/28/2014 14:15    7.17 54.00 1780 262.4 False x
3/6/2014 10:00    4.23 25.00 600 41.6 False x
3/13/2014 13:50    10.54 568.00 3450 5,298.4 False x
3/20/2014 10:00    6.27 139.00 1400 525.4 False x
3/27/2014 12:30    4.25 113.00 607 185.7 False x
4/3/2014 10:00    4.54 633.00 709 1,211.8 False x
4/22/2014 07:57    3.56 16 55.00 392 58.3 False x
4/22/2014 08:52    3.58 16 72.00 398 77.8 False x
4/23/2014 09:45    3.50 13 54.00 375 55.3 False x
4/29/2014 09:15    5.08 15 146.00 920 364.0 False x
5/1/2014 15:50    4.95 10 92.00 867 216.5 False x
5/8/2014 16:40    3.62 22 107.00 409 118.8 False x
5/15/2014 10:15    2.95 15 69.00 238 44.5 False x
5/22/2014 16:00    3.56 22 99.00 392 105.1 False x
5/29/2014 14:00    4.08 27 144.00 550 215.3 False x
6/5/2014 09:40    5.08 23 272.00 920 676.4 False x
6/8/2014 09:20    9.53 20 2,583.00 2910 20,300.3 False x
6/18/2014 12:15    4.81 26 200.00 811 438.2 False x
6/20/2014 19:40    5.96 27 450.00 1280 1,556.6 False x
6/27/2014 10:40    5.65 25 226.00 1160 709.5 False x
7/2/2014 17:00    14.51 21 995.00 5850 15,727.4 False x
7/9/2014 14:00    5.93 25 269.00 1260 918.3 False x
7/17/2014 15:40    4.48 25 128.00 687 239.3 False x
7/23/2014 12:40    3.64 27 128.00 415 144.2 False x
7/31/2014 11:45    2.95 24 114.00 238 73.5 False x
8/6/2014 15:10    3.44 25 62.00 359 60.4 False x
8/14/2014 16:00    2.45 26 41.00 139 15.6 False x
8/21/2014 16:30    2.40 27 37.00 130 13.1 False x
8/25/2014 13:00    4.46 28 221.00 680 406.4 False x
8/28/2014 16:00    2.68 28 48.00 181 23.6 False x
9/4/2014 12:30    3.45 26 218.00 362 213.6 False x
9/10/2014 12:40    12.99 22 2,741.00 4880 36,128.1 False x
9/10/2014 14:32    14.61 21 2,182.00 5920 34,877.9 False x
9/11/2014 12:40    15.77 20 978.00 6720 17,756.7 False x
9/18/2014 13:00    4.61 18 155.00 735 307.7 False x
9/25/2014 14:00    3.48 20 125.00 370 125.1 False x
10/3/2014 11:45    4.40 17 57.00 659 102.5 False x
10/9/2014 13:45    3.81 14 125.00 465 158.0 False x
10/16/2014 12:35    6.89 15 255.00 1660 1,144.2 False x
10/16/2014 15:35    6.76 17 220.00 1600 951.6 False x
10/16/2014 17:12    6.68 16 182.00 1570 775.6 False x
10/26/2014 12:00    4.34 14 157.00 638 271.9 False x
10/30/2014 14:30    3.93 10 161.00 502 218.9 False x
11/6/2014 12:30    3.85 156.00 477 201.0 False x
11/13/2014 09:30    3.48 136.00 370 136.6 False x
11/20/2014 13:30    3.59 167.00 400 181.4 False x
11/29/2014 15:00    3.54 96.00 386 100.6 False x
12/5/2014 12:45    3.46 119.00 364 117.9 False x
12/14/2014 13:30    3.14 132.00 282 101.1 False x
12/18/2014 12:15    3.39 171.00 346 159.8 False x
12/25/2014 09:20    3.78 152.00 456 187.6 False x
1/3/2015 10:00    3.61 161.00 406 177.3 False x
1/22/2015 12:30    5.27 30.00 999 82.3 False x
2/2/2015 14:10    4.52 52.00 702 98.7 False x
2/9/2015 13:00    5.24 60.00 987 160.1 False x
2/17/2015 14:00    3.70 157.00 432 183.7 False x
3/12/2015 16:10    9.27 1,471.00 2770 11,004.5 False x
3/19/2015 12:25    4.84 108.00 823 241.6 False x
3/23/2015 16:45    4.66 113.00 754 230.2 False x
4/2/2015 10:25    4.13 13 138.00 566 212.0 False x
4/9/2015 15:25    4.11 44.00 560 67.4 False x
4/9/2015 16:52    4.12 55.00 563 84.1 False x
4/10/2015 09:15    4.29 13 166.00 620 278.7 False x
4/19/2015 11:10    3.92 19 117.00 499 158.3 False x
4/23/2015 12:40    3.91 13 76.00 496 102.7 False x
5/1/2015 18:00    4.53 17 118.00 706 226.8 False x
5/10/2015 08:20    7.13 18 555.00 1760 2,637.4 False x
5/15/2015 09:10    5.52 16 274.00 1110 821.5 False x
5/21/2015 15:00    4.73 17 216.00 780 456.4 False x
5/26/2015 14:00    6.38 22 654.00 1440 2,544.3 False x
5/29/2015 15:00    6.15 23 416.00 1350 1,518.0 False x
6/3/2015 10:10    5.23 19 238.00 982 632.2 False x
6/8/2015 17:15    7.77 23 885.00 2050 4,901.0 False x
6/12/2015 15:40    17.92 23 1,324.00 9250 33,082.4 False x
6/17/2015 11:20    17.80 21 278.00 9100 6,851.0 False x
6/21/2015 17:20    9.10 22 361.00 2690 2,625.3 False x
6/25/2015 16:15    15.97 21 1,882.00 6940 35,279.2 False x
6/30/2015 15:25    9.63 22 376.00 2960 3,009.7 False x
6/30/2015 16:11    9.57 21 366.00 2930 2,902.3 False x
7/2/2015 08:40    8.03 20 316.00 2170 1,852.7 False x
7/7/2015 15:00    7.33 22 765.00 1850 3,822.0 False x
7/10/2015 17:00    6.37 22 278.00 1440 1,083.5 False x
7/13/2015 18:30    9.91 24 581.00 3110 4,886.8 False x
7/17/2015 08:05    16.59 27 1,919.00 7630 39,541.3 False x
7/23/2015 16:25    6.21 25 273.00 1370 1,010.7 False x
7/30/2015 10:20    6.29 26 450.00 1410 1,714.2 False x
8/7/2015 14:00    4.14 26 151.00 570 232.9 False x
8/12/2015 17:00    4.00 27 150.00 524 212.7 False x
8/20/2015 10:00    5.05 23 268.00 907 657.9 False x
8/24/2015 14:37    3.46 24 173.00 364 170.2 False x
8/24/2015 15:27    3.44 24 158.00 359 153.3 False x
8/27/2015 14:00    2.15 22 164.00 91 40.3 False x
9/4/2015 12:35    2.80 28 147.00 206 82.2 False x
9/10/2015 09:20    2.96 23 177.00 241 115.7 False x
9/18/2015 08:45    2.37 24 134.00 125 45.2 False x
9/25/2015 16:20    2.72 22 39.00 189 20.3 False x
10/1/2015 08:50    2.48 16 159.00 144 62.2 False x
10/1/2015 14:31    2.50 17 156.00 147 62.2 False x
10/1/2015 15:24    2.45 17 146.00 139 55.1 False x
10/9/2015 08:50    2.37 17 146.00 125 49.5 False x
10/19/2015 09:15    2.32 10 140.00 117 44.5 False x
10/25/2015 17:45    2.46 14 137.00 140 52.0 False x
10/31/2015 17:00    2.86 10 154.00 219 91.4 False x
11/5/2015 10:20    2.89 15 191.00 225 116.3 False x
11/12/2015 16:00    2.97 10 227.00 243 149.0 False x
11/19/2015 17:30    7.68 10 559.00 2010 3,037.0 False x
11/26/2015 13:45    6.00 250.00 1290 873.8 False x
12/3/2015 09:30    7.60 285.00 1970 1,519.3 False x
12/10/2015 09:30    5.82 176.00 1220 579.9 False x
12/14/2015 12:45    12.00 12 1,138.00 4280 13,152.4 False x
12/18/2015 13:15    7.95 250.00 2130 1,443.5 False x
12/25/2015 12:45    9.56 412.00 2920 3,254.9 False x
1/2/2016 13:10    10.18 316.00 3250 2,781.7 False x
1/7/2016 16:00    7.28 193.00 1830 954.5 False x
1/15/2016 13:33    6.89 151.00 1660 679.8 False x
1/22/2016 16:38    6.22 176.00 1380 656.8 False x
1/29/2016 13:00    5.34 169.00 1030 470.4 False x
2/5/2016 09:30    5.56 200.00 1120 606.9 False x
2/11/2016 13:15    4.37 155.00 648 271.7 False x
2/18/2016 13:10    4.72 146.00 777 306.4 False x
2/25/2016 12:50    4.42 110.00 666 198.7 False x
3/3/2016 16:00    4.10 155.00 556 233.8 False x
3/11/2016 16:00    4.36 13 88.00 645 154.4 False x
3/16/2016 12:55    7.67 13 1,826.00 2000 9,862.3 False x
3/26/2016 12:20    5.58 10 178.00 1130 543.8 False x
3/31/2016 13:20    5.43 14 162.00 1070 468.4 False x
4/5/2016 14:38    5.37 10 117.00 1040 330.7 False x
4/5/2016 15:37    5.37 10 57.00 1040 160.9 False x
4/7/2016 13:10    5.50 131.00 1100 389.3 False x
4/17/2016 09:20    4.45 17 174.00 677 318.6 False x
4/22/2016 09:30    4.80 17 168.00 807 367.6 False x
4/28/2016 12:50    4.45 16 150.00 677 275.0 False x
5/1/2016 11:00    4.57 13 272.00 720 529.7 False x
5/5/2016 13:25    5.46 16 194.00 1080 568.4 False x
5/11/2016 16:00    8.36 19 797.00 2320 4,993.8 False x
5/13/2016 16:25    8.07 18 499.00 2190 2,952.6 False x
5/20/2016 09:00    5.88 16 252.00 1240 846.2 False x
5/27/2016 09:35    5.04 23 217.00 903 530.4 False x
6/2/2016 14:00    4.87 25 173.00 835 391.0 False x
6/10/2016 10:45    3.99 26 205.00 521 289.3 False x
6/16/2016 14:30    7.03 30 1,379.00 1720 6,406.3 False x
6/23/2016 08:15    7.86 24 1,729.00 2090 9,757.9 False x
6/23/2016 08:52    7.75 24 1,640.00 2040 9,036.5 False x
6/24/2016 07:25    6.62 24 543.00 1540 2,260.4 False x
7/2/2016 13:40    3.98 22 307.00 518 430.8 False x
7/7/2016 17:10    6.53 25 778.00 1500 3,154.7 False x
7/14/2016 10:20    8.75 25 2,199.00 2510 14,907.3 False x
7/21/2016 10:00    4.49 28 207.00 691 386.4 False x
7/23/2016 10:00    8.05 26 1,080.00 2180 6,357.7 False x
7/29/2016 08:45    3.87 26 207.00 483 270.0 False x
8/5/2016 10:30    3.41 27 127.00 351 121.2 False x
8/12/2016 14:30    3.18 28 154.00 292 122.0 False x
8/18/2016 12:30    3.00 28 103.00 250 69.6 False x
8/25/2016 12:36    4.21 27 190.00 593 304.6 False x
8/28/2016 09:30    6.71 25 876.00 1580 3,738.7 False x
8/30/2016 10:43    6.94 24 765.00 1680 3,471.1 False x
8/30/2016 11:34    6.84 24 703.00 1630 3,096.0 False x
10/25/2016 09:53    3.53 13 87.00 384 90.8 False x
10/25/2016 10:42    3.53 13 72.00 384 74.8 False x
1/23/2017 13:55    6.56 177.00 1520 728.0 False x
1/23/2017 14:53    6.54 173.00 1510 707.7 False x

Data Set Parameters and Explanation

Help with downloading, csv files, printing, and more





Illinois State Water Survey

2204 Griffith Dr
Champaign, IL 61820-7463
217-244-5459
info@isws.illinois.edu

Terms of use. Email the Web Administrator with questions or comments.

© 2017 University of Illinois Board of Trustees. All rights reserved.
For permissions information, contact the Illinois State Water Survey.
Site Map